<?xml version="1.0" encoding="UTF-8" standalone="no" ?>
<gpx xmlns="http://www.topografix.com/GPX/1/1" xmlns:xsi="http://www.w3.org/2001/XMLSchema-instance" xsi:schemaLocation="http://www.topografix.com/GPX/1/1 http://www.topografix.com/GPX/1/1/gpx.xsd" version="1.1" creator="VisuGPX - https://www.visugpx.com">
  <metadata>
    <name>Sainte Victoire </name>
    <desc><![CDATA[grp_trc:[nouvelles]]]></desc>
  </metadata>
  <trk>
    <name><![CDATA[10 sept. 2022 à 07:07:19]]></name>
    <cmt><![CDATA[10 sept. 2022 à 07:07:19]]></cmt>
    <trkseg>
      <trkpt lat="43.5234" lon="5.56779">
        <ele>306</ele>
        <time>2022-09-10T05:07:20Z</time>
      </trkpt>
      <trkpt lat="43.52352" lon="5.56768">
        <ele>306</ele>
        <time>2022-09-10T05:07:27Z</time>
      </trkpt>
      <trkpt lat="43.52355" lon="5.56768">
        <ele>306</ele>
        <time>2022-09-10T05:07:31Z</time>
      </trkpt>
      <trkpt lat="43.52364" lon="5.56775">
        <ele>307</ele>
        <time>2022-09-10T05:07:40Z</time>
      </trkpt>
      <trkpt lat="43.52368" lon="5.56781">
        <ele>309</ele>
        <time>2022-09-10T05:07:44Z</time>
      </trkpt>
      <trkpt lat="43.5237" lon="5.5679">
        <ele>309</ele>
        <time>2022-09-10T05:07:50Z</time>
      </trkpt>
      <trkpt lat="43.52375" lon="5.56789">
        <ele>310</ele>
        <time>2022-09-10T05:07:54Z</time>
      </trkpt>
      <trkpt lat="43.52379" lon="5.56788">
        <ele>311</ele>
        <time>2022-09-10T05:07:57Z</time>
      </trkpt>
      <trkpt lat="43.52384" lon="5.56785">
        <ele>313</ele>
        <time>2022-09-10T05:08:02Z</time>
      </trkpt>
      <trkpt lat="43.52389" lon="5.56782">
        <ele>315</ele>
        <time>2022-09-10T05:08:10Z</time>
      </trkpt>
      <trkpt lat="43.52394" lon="5.56786">
        <ele>317</ele>
        <time>2022-09-10T05:08:20Z</time>
      </trkpt>
      <trkpt lat="43.52398" lon="5.56785">
        <ele>319</ele>
        <time>2022-09-10T05:08:26Z</time>
      </trkpt>
      <trkpt lat="43.52401" lon="5.5679">
        <ele>321</ele>
        <time>2022-09-10T05:09:01Z</time>
      </trkpt>
      <trkpt lat="43.52397" lon="5.56795">
        <ele>321</ele>
        <time>2022-09-10T05:09:03Z</time>
      </trkpt>
      <trkpt lat="43.52406" lon="5.56795">
        <ele>323</ele>
        <time>2022-09-10T05:09:13Z</time>
      </trkpt>
      <trkpt lat="43.52408" lon="5.56789">
        <ele>323</ele>
        <time>2022-09-10T05:09:17Z</time>
      </trkpt>
      <trkpt lat="43.52413" lon="5.56784">
        <ele>325</ele>
        <time>2022-09-10T05:09:25Z</time>
      </trkpt>
      <trkpt lat="43.52419" lon="5.56783">
        <ele>325</ele>
        <time>2022-09-10T05:09:30Z</time>
      </trkpt>
      <trkpt lat="43.52425" lon="5.56781">
        <ele>327</ele>
        <time>2022-09-10T05:09:39Z</time>
      </trkpt>
      <trkpt lat="43.52431" lon="5.56779">
        <ele>329</ele>
        <time>2022-09-10T05:09:46Z</time>
      </trkpt>
      <trkpt lat="43.5246" lon="5.56781">
        <ele>332</ele>
        <time>2022-09-10T05:10:19Z</time>
      </trkpt>
      <trkpt lat="43.5248" lon="5.56776">
        <ele>334</ele>
        <time>2022-09-10T05:10:35Z</time>
      </trkpt>
      <trkpt lat="43.52488" lon="5.56769">
        <ele>336</ele>
        <time>2022-09-10T05:10:43Z</time>
      </trkpt>
      <trkpt lat="43.52491" lon="5.56765">
        <ele>336</ele>
        <time>2022-09-10T05:10:47Z</time>
      </trkpt>
      <trkpt lat="43.52498" lon="5.56747">
        <ele>339</ele>
        <time>2022-09-10T05:10:59Z</time>
      </trkpt>
      <trkpt lat="43.52506" lon="5.56724">
        <ele>341</ele>
        <time>2022-09-10T05:11:14Z</time>
      </trkpt>
      <trkpt lat="43.52509" lon="5.56718">
        <ele>342</ele>
        <time>2022-09-10T05:11:18Z</time>
      </trkpt>
      <trkpt lat="43.52517" lon="5.5671">
        <ele>343</ele>
        <time>2022-09-10T05:11:27Z</time>
      </trkpt>
      <trkpt lat="43.52521" lon="5.56709">
        <ele>343</ele>
        <time>2022-09-10T05:11:32Z</time>
      </trkpt>
      <trkpt lat="43.52551" lon="5.56688">
        <ele>348</ele>
        <time>2022-09-10T05:12:05Z</time>
      </trkpt>
      <trkpt lat="43.52561" lon="5.56686">
        <ele>350</ele>
        <time>2022-09-10T05:12:15Z</time>
      </trkpt>
      <trkpt lat="43.52565" lon="5.56685">
        <ele>351</ele>
        <time>2022-09-10T05:12:19Z</time>
      </trkpt>
      <trkpt lat="43.52589" lon="5.56692">
        <ele>356</ele>
        <time>2022-09-10T05:12:44Z</time>
      </trkpt>
      <trkpt lat="43.52593" lon="5.56697">
        <ele>357</ele>
        <time>2022-09-10T05:12:51Z</time>
      </trkpt>
      <trkpt lat="43.52594" lon="5.56712">
        <ele>361</ele>
        <time>2022-09-10T05:13:06Z</time>
      </trkpt>
      <trkpt lat="43.52598" lon="5.5673">
        <ele>364</ele>
        <time>2022-09-10T05:13:22Z</time>
      </trkpt>
      <trkpt lat="43.526" lon="5.56736">
        <ele>364</ele>
        <time>2022-09-10T05:13:26Z</time>
      </trkpt>
      <trkpt lat="43.526" lon="5.56749">
        <ele>365</ele>
        <time>2022-09-10T05:13:34Z</time>
      </trkpt>
      <trkpt lat="43.52594" lon="5.56776">
        <ele>367</ele>
        <time>2022-09-10T05:13:54Z</time>
      </trkpt>
      <trkpt lat="43.52599" lon="5.56788">
        <ele>369</ele>
        <time>2022-09-10T05:14:03Z</time>
      </trkpt>
      <trkpt lat="43.52603" lon="5.56792">
        <ele>370</ele>
        <time>2022-09-10T05:14:07Z</time>
      </trkpt>
      <trkpt lat="43.52609" lon="5.56788">
        <ele>372</ele>
        <time>2022-09-10T05:14:15Z</time>
      </trkpt>
      <trkpt lat="43.52635" lon="5.56761">
        <ele>378</ele>
        <time>2022-09-10T05:14:48Z</time>
      </trkpt>
      <trkpt lat="43.5264" lon="5.56759">
        <ele>379</ele>
        <time>2022-09-10T05:14:53Z</time>
      </trkpt>
      <trkpt lat="43.52647" lon="5.56765">
        <ele>381</ele>
        <time>2022-09-10T05:15:03Z</time>
      </trkpt>
      <trkpt lat="43.52651" lon="5.56772">
        <ele>382</ele>
        <time>2022-09-10T05:15:11Z</time>
      </trkpt>
      <trkpt lat="43.52657" lon="5.56775">
        <ele>383</ele>
        <time>2022-09-10T05:15:17Z</time>
      </trkpt>
      <trkpt lat="43.52659" lon="5.56788">
        <ele>386</ele>
        <time>2022-09-10T05:15:29Z</time>
      </trkpt>
      <trkpt lat="43.52661" lon="5.56795">
        <ele>388</ele>
        <time>2022-09-10T05:15:36Z</time>
      </trkpt>
      <trkpt lat="43.52658" lon="5.56803">
        <ele>390</ele>
        <time>2022-09-10T05:15:47Z</time>
      </trkpt>
      <trkpt lat="43.52653" lon="5.56813">
        <ele>392</ele>
        <time>2022-09-10T05:15:56Z</time>
      </trkpt>
      <trkpt lat="43.52654" lon="5.5682">
        <ele>393</ele>
        <time>2022-09-10T05:16:00Z</time>
      </trkpt>
      <trkpt lat="43.52655" lon="5.56828">
        <ele>393</ele>
        <time>2022-09-10T05:16:06Z</time>
      </trkpt>
      <trkpt lat="43.52664" lon="5.56841">
        <ele>395</ele>
        <time>2022-09-10T05:16:18Z</time>
      </trkpt>
      <trkpt lat="43.52669" lon="5.56846">
        <ele>396</ele>
        <time>2022-09-10T05:16:24Z</time>
      </trkpt>
      <trkpt lat="43.52683" lon="5.56851">
        <ele>398</ele>
        <time>2022-09-10T05:16:36Z</time>
      </trkpt>
      <trkpt lat="43.52693" lon="5.56859">
        <ele>400</ele>
        <time>2022-09-10T05:16:49Z</time>
      </trkpt>
      <trkpt lat="43.52696" lon="5.56864">
        <ele>401</ele>
        <time>2022-09-10T05:16:53Z</time>
      </trkpt>
      <trkpt lat="43.527" lon="5.56867">
        <ele>402</ele>
        <time>2022-09-10T05:16:57Z</time>
      </trkpt>
      <trkpt lat="43.52708" lon="5.56875">
        <ele>402</ele>
        <time>2022-09-10T05:17:05Z</time>
      </trkpt>
      <trkpt lat="43.52713" lon="5.56875">
        <ele>402</ele>
        <time>2022-09-10T05:17:08Z</time>
      </trkpt>
      <trkpt lat="43.52717" lon="5.56873">
        <ele>402</ele>
        <time>2022-09-10T05:17:12Z</time>
      </trkpt>
      <trkpt lat="43.52722" lon="5.56872">
        <ele>402</ele>
        <time>2022-09-10T05:17:16Z</time>
      </trkpt>
      <trkpt lat="43.52731" lon="5.56873">
        <ele>403</ele>
        <time>2022-09-10T05:17:25Z</time>
      </trkpt>
      <trkpt lat="43.5274" lon="5.56872">
        <ele>404</ele>
        <time>2022-09-10T05:17:33Z</time>
      </trkpt>
      <trkpt lat="43.52746" lon="5.56874">
        <ele>405</ele>
        <time>2022-09-10T05:17:39Z</time>
      </trkpt>
      <trkpt lat="43.52754" lon="5.56867">
        <ele>407</ele>
        <time>2022-09-10T05:17:48Z</time>
      </trkpt>
      <trkpt lat="43.52757" lon="5.56862">
        <ele>408</ele>
        <time>2022-09-10T05:17:52Z</time>
      </trkpt>
      <trkpt lat="43.52759" lon="5.56856">
        <ele>408</ele>
        <time>2022-09-10T05:17:56Z</time>
      </trkpt>
      <trkpt lat="43.52759" lon="5.56849">
        <ele>408</ele>
        <time>2022-09-10T05:18:01Z</time>
      </trkpt>
      <trkpt lat="43.52766" lon="5.56849">
        <ele>409</ele>
        <time>2022-09-10T05:18:09Z</time>
      </trkpt>
      <trkpt lat="43.52774" lon="5.56852">
        <ele>411</ele>
        <time>2022-09-10T05:18:19Z</time>
      </trkpt>
      <trkpt lat="43.52778" lon="5.56858">
        <ele>412</ele>
        <time>2022-09-10T05:18:26Z</time>
      </trkpt>
      <trkpt lat="43.52789" lon="5.56857">
        <ele>414</ele>
        <time>2022-09-10T05:18:37Z</time>
      </trkpt>
      <trkpt lat="43.52794" lon="5.56857">
        <ele>415</ele>
        <time>2022-09-10T05:18:42Z</time>
      </trkpt>
      <trkpt lat="43.52795" lon="5.56865">
        <ele>416</ele>
        <time>2022-09-10T05:18:48Z</time>
      </trkpt>
      <trkpt lat="43.52796" lon="5.56873">
        <ele>417</ele>
        <time>2022-09-10T05:18:56Z</time>
      </trkpt>
      <trkpt lat="43.528" lon="5.56874">
        <ele>418</ele>
        <time>2022-09-10T05:19:00Z</time>
      </trkpt>
      <trkpt lat="43.52805" lon="5.56877">
        <ele>420</ele>
        <time>2022-09-10T05:19:07Z</time>
      </trkpt>
      <trkpt lat="43.52805" lon="5.56885">
        <ele>422</ele>
        <time>2022-09-10T05:19:18Z</time>
      </trkpt>
      <trkpt lat="43.5281" lon="5.56886">
        <ele>422</ele>
        <time>2022-09-10T05:19:21Z</time>
      </trkpt>
      <trkpt lat="43.52819" lon="5.56892">
        <ele>423</ele>
        <time>2022-09-10T05:19:29Z</time>
      </trkpt>
      <trkpt lat="43.52834" lon="5.56894">
        <ele>424</ele>
        <time>2022-09-10T05:19:41Z</time>
      </trkpt>
      <trkpt lat="43.52841" lon="5.56897">
        <ele>425</ele>
        <time>2022-09-10T05:19:49Z</time>
      </trkpt>
      <trkpt lat="43.52846" lon="5.56898">
        <ele>426</ele>
        <time>2022-09-10T05:19:52Z</time>
      </trkpt>
      <trkpt lat="43.52851" lon="5.56895">
        <ele>427</ele>
        <time>2022-09-10T05:19:57Z</time>
      </trkpt>
      <trkpt lat="43.52865" lon="5.56895">
        <ele>428</ele>
        <time>2022-09-10T05:20:11Z</time>
      </trkpt>
      <trkpt lat="43.52872" lon="5.56898">
        <ele>430</ele>
        <time>2022-09-10T05:20:18Z</time>
      </trkpt>
      <trkpt lat="43.52876" lon="5.56897">
        <ele>431</ele>
        <time>2022-09-10T05:20:23Z</time>
      </trkpt>
      <trkpt lat="43.5288" lon="5.56904">
        <ele>432</ele>
        <time>2022-09-10T05:20:31Z</time>
      </trkpt>
      <trkpt lat="43.52887" lon="5.5691">
        <ele>434</ele>
        <time>2022-09-10T05:20:40Z</time>
      </trkpt>
      <trkpt lat="43.5289" lon="5.56913">
        <ele>434</ele>
        <time>2022-09-10T05:20:44Z</time>
      </trkpt>
      <trkpt lat="43.52905" lon="5.56918">
        <ele>436</ele>
        <time>2022-09-10T05:20:56Z</time>
      </trkpt>
      <trkpt lat="43.52914" lon="5.56917">
        <ele>437</ele>
        <time>2022-09-10T05:21:04Z</time>
      </trkpt>
      <trkpt lat="43.52918" lon="5.56915">
        <ele>438</ele>
        <time>2022-09-10T05:21:08Z</time>
      </trkpt>
      <trkpt lat="43.52927" lon="5.56919">
        <ele>439</ele>
        <time>2022-09-10T05:21:16Z</time>
      </trkpt>
      <trkpt lat="43.52932" lon="5.56923">
        <ele>440</ele>
        <time>2022-09-10T05:21:25Z</time>
      </trkpt>
      <trkpt lat="43.5294" lon="5.56924">
        <ele>441</ele>
        <time>2022-09-10T05:21:42Z</time>
      </trkpt>
      <trkpt lat="43.52945" lon="5.56927">
        <ele>442</ele>
        <time>2022-09-10T05:21:47Z</time>
      </trkpt>
      <trkpt lat="43.52949" lon="5.56926">
        <ele>443</ele>
        <time>2022-09-10T05:21:52Z</time>
      </trkpt>
      <trkpt lat="43.52957" lon="5.56926">
        <ele>443</ele>
        <time>2022-09-10T05:22:03Z</time>
      </trkpt>
      <trkpt lat="43.52964" lon="5.56929">
        <ele>445</ele>
        <time>2022-09-10T05:22:14Z</time>
      </trkpt>
      <trkpt lat="43.52969" lon="5.56927">
        <ele>446</ele>
        <time>2022-09-10T05:22:19Z</time>
      </trkpt>
      <trkpt lat="43.52972" lon="5.56923">
        <ele>447</ele>
        <time>2022-09-10T05:22:23Z</time>
      </trkpt>
      <trkpt lat="43.52975" lon="5.56917">
        <ele>447</ele>
        <time>2022-09-10T05:22:26Z</time>
      </trkpt>
      <trkpt lat="43.52978" lon="5.56912">
        <ele>448</ele>
        <time>2022-09-10T05:22:30Z</time>
      </trkpt>
      <trkpt lat="43.52978" lon="5.56899">
        <ele>447</ele>
        <time>2022-09-10T05:22:36Z</time>
      </trkpt>
      <trkpt lat="43.52981" lon="5.56894">
        <ele>447</ele>
        <time>2022-09-10T05:22:40Z</time>
      </trkpt>
      <trkpt lat="43.52982" lon="5.56888">
        <ele>448</ele>
        <time>2022-09-10T05:22:44Z</time>
      </trkpt>
      <trkpt lat="43.52989" lon="5.56887">
        <ele>449</ele>
        <time>2022-09-10T05:22:53Z</time>
      </trkpt>
      <trkpt lat="43.52991" lon="5.5688">
        <ele>450</ele>
        <time>2022-09-10T05:22:58Z</time>
      </trkpt>
      <trkpt lat="43.52996" lon="5.56879">
        <ele>450</ele>
        <time>2022-09-10T05:23:02Z</time>
      </trkpt>
      <trkpt lat="43.53002" lon="5.56873">
        <ele>453</ele>
        <time>2022-09-10T05:23:13Z</time>
      </trkpt>
      <trkpt lat="43.53006" lon="5.5687">
        <ele>453</ele>
        <time>2022-09-10T05:23:17Z</time>
      </trkpt>
      <trkpt lat="43.53011" lon="5.56871">
        <ele>454</ele>
        <time>2022-09-10T05:23:24Z</time>
      </trkpt>
      <trkpt lat="43.53019" lon="5.56866">
        <ele>456</ele>
        <time>2022-09-10T05:23:34Z</time>
      </trkpt>
      <trkpt lat="43.53026" lon="5.56864">
        <ele>458</ele>
        <time>2022-09-10T05:23:42Z</time>
      </trkpt>
      <trkpt lat="43.53029" lon="5.5686">
        <ele>458</ele>
        <time>2022-09-10T05:23:46Z</time>
      </trkpt>
      <trkpt lat="43.5304" lon="5.56828">
        <ele>461</ele>
        <time>2022-09-10T05:24:11Z</time>
      </trkpt>
      <trkpt lat="43.5304" lon="5.5682">
        <ele>462</ele>
        <time>2022-09-10T05:24:16Z</time>
      </trkpt>
      <trkpt lat="43.53043" lon="5.56814">
        <ele>463</ele>
        <time>2022-09-10T05:24:21Z</time>
      </trkpt>
      <trkpt lat="43.53043" lon="5.56806">
        <ele>464</ele>
        <time>2022-09-10T05:24:28Z</time>
      </trkpt>
      <trkpt lat="43.53049" lon="5.56802">
        <ele>466</ele>
        <time>2022-09-10T05:24:41Z</time>
      </trkpt>
      <trkpt lat="43.53063" lon="5.56799">
        <ele>470</ele>
        <time>2022-09-10T05:24:59Z</time>
      </trkpt>
      <trkpt lat="43.53061" lon="5.56788">
        <ele>472</ele>
        <time>2022-09-10T05:25:10Z</time>
      </trkpt>
      <trkpt lat="43.53058" lon="5.56784">
        <ele>473</ele>
        <time>2022-09-10T05:25:15Z</time>
      </trkpt>
      <trkpt lat="43.53058" lon="5.56775">
        <ele>475</ele>
        <time>2022-09-10T05:25:26Z</time>
      </trkpt>
      <trkpt lat="43.53054" lon="5.56773">
        <ele>476</ele>
        <time>2022-09-10T05:25:31Z</time>
      </trkpt>
      <trkpt lat="43.53051" lon="5.56768">
        <ele>477</ele>
        <time>2022-09-10T05:25:36Z</time>
      </trkpt>
      <trkpt lat="43.53049" lon="5.5676">
        <ele>478</ele>
        <time>2022-09-10T05:25:43Z</time>
      </trkpt>
      <trkpt lat="43.53043" lon="5.56752">
        <ele>479</ele>
        <time>2022-09-10T05:25:52Z</time>
      </trkpt>
      <trkpt lat="43.53044" lon="5.56744">
        <ele>480</ele>
        <time>2022-09-10T05:26:00Z</time>
      </trkpt>
      <trkpt lat="43.53046" lon="5.56732">
        <ele>482</ele>
        <time>2022-09-10T05:26:12Z</time>
      </trkpt>
      <trkpt lat="43.53049" lon="5.56725">
        <ele>483</ele>
        <time>2022-09-10T05:26:19Z</time>
      </trkpt>
      <trkpt lat="43.53055" lon="5.56722">
        <ele>484</ele>
        <time>2022-09-10T05:26:26Z</time>
      </trkpt>
      <trkpt lat="43.53061" lon="5.56718">
        <ele>484</ele>
        <time>2022-09-10T05:26:33Z</time>
      </trkpt>
      <trkpt lat="43.53066" lon="5.56716">
        <ele>485</ele>
        <time>2022-09-10T05:26:38Z</time>
      </trkpt>
      <trkpt lat="43.53073" lon="5.56718">
        <ele>487</ele>
        <time>2022-09-10T05:26:46Z</time>
      </trkpt>
      <trkpt lat="43.53075" lon="5.56712">
        <ele>487</ele>
        <time>2022-09-10T05:26:50Z</time>
      </trkpt>
      <trkpt lat="43.53076" lon="5.56706">
        <ele>488</ele>
        <time>2022-09-10T05:26:54Z</time>
      </trkpt>
      <trkpt lat="43.53075" lon="5.56699">
        <ele>489</ele>
        <time>2022-09-10T05:26:59Z</time>
      </trkpt>
      <trkpt lat="43.53077" lon="5.56691">
        <ele>490</ele>
        <time>2022-09-10T05:27:06Z</time>
      </trkpt>
      <trkpt lat="43.53082" lon="5.56688">
        <ele>491</ele>
        <time>2022-09-10T05:27:13Z</time>
      </trkpt>
      <trkpt lat="43.53089" lon="5.5669">
        <ele>492</ele>
        <time>2022-09-10T05:27:23Z</time>
      </trkpt>
      <trkpt lat="43.53101" lon="5.56697">
        <ele>495</ele>
        <time>2022-09-10T05:27:50Z</time>
      </trkpt>
      <trkpt lat="43.53107" lon="5.56694">
        <ele>497</ele>
        <time>2022-09-10T05:27:59Z</time>
      </trkpt>
      <trkpt lat="43.53111" lon="5.56695">
        <ele>499</ele>
        <time>2022-09-10T05:28:05Z</time>
      </trkpt>
      <trkpt lat="43.53118" lon="5.567">
        <ele>500</ele>
        <time>2022-09-10T05:29:07Z</time>
      </trkpt>
      <trkpt lat="43.53121" lon="5.56704">
        <ele>501</ele>
        <time>2022-09-10T05:29:12Z</time>
      </trkpt>
      <trkpt lat="43.53123" lon="5.56712">
        <ele>503</ele>
        <time>2022-09-10T05:29:20Z</time>
      </trkpt>
      <trkpt lat="43.53124" lon="5.5672">
        <ele>504</ele>
        <time>2022-09-10T05:29:30Z</time>
      </trkpt>
      <trkpt lat="43.53128" lon="5.56723">
        <ele>505</ele>
        <time>2022-09-10T05:29:40Z</time>
      </trkpt>
      <trkpt lat="43.53133" lon="5.5672">
        <ele>507</ele>
        <time>2022-09-10T05:29:50Z</time>
      </trkpt>
      <trkpt lat="43.53134" lon="5.56714">
        <ele>508</ele>
        <time>2022-09-10T05:29:55Z</time>
      </trkpt>
      <trkpt lat="43.53143" lon="5.56705">
        <ele>510</ele>
        <time>2022-09-10T05:30:17Z</time>
      </trkpt>
      <trkpt lat="43.53148" lon="5.56707">
        <ele>511</ele>
        <time>2022-09-10T05:30:38Z</time>
      </trkpt>
      <trkpt lat="43.53152" lon="5.56716">
        <ele>511</ele>
        <time>2022-09-10T05:30:48Z</time>
      </trkpt>
      <trkpt lat="43.53153" lon="5.56722">
        <ele>513</ele>
        <time>2022-09-10T05:30:56Z</time>
      </trkpt>
      <trkpt lat="43.5315" lon="5.56731">
        <ele>515</ele>
        <time>2022-09-10T05:31:06Z</time>
      </trkpt>
      <trkpt lat="43.53154" lon="5.56735">
        <ele>518</ele>
        <time>2022-09-10T05:31:17Z</time>
      </trkpt>
      <trkpt lat="43.53152" lon="5.56742">
        <ele>518</ele>
        <time>2022-09-10T05:31:22Z</time>
      </trkpt>
      <trkpt lat="43.53151" lon="5.56747">
        <ele>519</ele>
        <time>2022-09-10T05:31:27Z</time>
      </trkpt>
      <trkpt lat="43.53151" lon="5.56753">
        <ele>520</ele>
        <time>2022-09-10T05:31:32Z</time>
      </trkpt>
      <trkpt lat="43.53159" lon="5.56769">
        <ele>523</ele>
        <time>2022-09-10T05:32:05Z</time>
      </trkpt>
      <trkpt lat="43.53165" lon="5.56776">
        <ele>525</ele>
        <time>2022-09-10T05:32:15Z</time>
      </trkpt>
      <trkpt lat="43.53174" lon="5.56778">
        <ele>528</ele>
        <time>2022-09-10T05:32:27Z</time>
      </trkpt>
      <trkpt lat="43.53182" lon="5.56784">
        <ele>530</ele>
        <time>2022-09-10T05:32:38Z</time>
      </trkpt>
      <trkpt lat="43.5319" lon="5.56783">
        <ele>531</ele>
        <time>2022-09-10T05:32:46Z</time>
      </trkpt>
      <trkpt lat="43.53194" lon="5.56785">
        <ele>532</ele>
        <time>2022-09-10T05:32:51Z</time>
      </trkpt>
      <trkpt lat="43.53197" lon="5.5679">
        <ele>532</ele>
        <time>2022-09-10T05:32:56Z</time>
      </trkpt>
      <trkpt lat="43.532" lon="5.56798">
        <ele>533</ele>
        <time>2022-09-10T05:33:02Z</time>
      </trkpt>
      <trkpt lat="43.53207" lon="5.56806">
        <ele>535</ele>
        <time>2022-09-10T05:33:14Z</time>
      </trkpt>
      <trkpt lat="43.5321" lon="5.56813">
        <ele>537</ele>
        <time>2022-09-10T05:33:22Z</time>
      </trkpt>
      <trkpt lat="43.53217" lon="5.56825">
        <ele>539</ele>
        <time>2022-09-10T05:33:34Z</time>
      </trkpt>
      <trkpt lat="43.53218" lon="5.56834">
        <ele>539</ele>
        <time>2022-09-10T05:33:41Z</time>
      </trkpt>
      <trkpt lat="43.53219" lon="5.56843">
        <ele>541</ele>
        <time>2022-09-10T05:33:50Z</time>
      </trkpt>
      <trkpt lat="43.53224" lon="5.56856">
        <ele>542</ele>
        <time>2022-09-10T05:34:02Z</time>
      </trkpt>
      <trkpt lat="43.53224" lon="5.56864">
        <ele>543</ele>
        <time>2022-09-10T05:34:07Z</time>
      </trkpt>
      <trkpt lat="43.53227" lon="5.56869">
        <ele>543</ele>
        <time>2022-09-10T05:34:12Z</time>
      </trkpt>
      <trkpt lat="43.53237" lon="5.56879">
        <ele>544</ele>
        <time>2022-09-10T05:34:23Z</time>
      </trkpt>
      <trkpt lat="43.53241" lon="5.56883">
        <ele>543</ele>
        <time>2022-09-10T05:34:28Z</time>
      </trkpt>
      <trkpt lat="43.53242" lon="5.56888">
        <ele>542</ele>
        <time>2022-09-10T05:34:32Z</time>
      </trkpt>
      <trkpt lat="43.53248" lon="5.56906">
        <ele>542</ele>
        <time>2022-09-10T05:34:45Z</time>
      </trkpt>
      <trkpt lat="43.5325" lon="5.56912">
        <ele>543</ele>
        <time>2022-09-10T05:34:49Z</time>
      </trkpt>
      <trkpt lat="43.53256" lon="5.56921">
        <ele>544</ele>
        <time>2022-09-10T05:34:57Z</time>
      </trkpt>
      <trkpt lat="43.53259" lon="5.56925">
        <ele>544</ele>
        <time>2022-09-10T05:35:01Z</time>
      </trkpt>
      <trkpt lat="43.53262" lon="5.5693">
        <ele>544</ele>
        <time>2022-09-10T05:35:05Z</time>
      </trkpt>
      <trkpt lat="43.53275" lon="5.5694">
        <ele>546</ele>
        <time>2022-09-10T05:35:25Z</time>
      </trkpt>
      <trkpt lat="43.53284" lon="5.56943">
        <ele>548</ele>
        <time>2022-09-10T05:35:35Z</time>
      </trkpt>
      <trkpt lat="43.53293" lon="5.56951">
        <ele>551</ele>
        <time>2022-09-10T05:35:49Z</time>
      </trkpt>
      <trkpt lat="43.53298" lon="5.56957">
        <ele>554</ele>
        <time>2022-09-10T05:36:01Z</time>
      </trkpt>
      <trkpt lat="43.53308" lon="5.56967">
        <ele>557</ele>
        <time>2022-09-10T05:36:17Z</time>
      </trkpt>
      <trkpt lat="43.53312" lon="5.56969">
        <ele>558</ele>
        <time>2022-09-10T05:36:22Z</time>
      </trkpt>
      <trkpt lat="43.53317" lon="5.56965">
        <ele>559</ele>
        <time>2022-09-10T05:36:30Z</time>
      </trkpt>
      <trkpt lat="43.53321" lon="5.56964">
        <ele>560</ele>
        <time>2022-09-10T05:36:56Z</time>
      </trkpt>
      <trkpt lat="43.53325" lon="5.56972">
        <ele>560</ele>
        <time>2022-09-10T05:37:42Z</time>
      </trkpt>
      <trkpt lat="43.53327" lon="5.5698">
        <ele>561</ele>
        <time>2022-09-10T05:37:50Z</time>
      </trkpt>
      <trkpt lat="43.5333" lon="5.56984">
        <ele>561</ele>
        <time>2022-09-10T05:37:55Z</time>
      </trkpt>
      <trkpt lat="43.53335" lon="5.5699">
        <ele>561</ele>
        <time>2022-09-10T05:38:01Z</time>
      </trkpt>
      <trkpt lat="43.53343" lon="5.56995">
        <ele>562</ele>
        <time>2022-09-10T05:38:10Z</time>
      </trkpt>
      <trkpt lat="43.53349" lon="5.56994">
        <ele>563</ele>
        <time>2022-09-10T05:38:15Z</time>
      </trkpt>
      <trkpt lat="43.53353" lon="5.56993">
        <ele>564</ele>
        <time>2022-09-10T05:38:19Z</time>
      </trkpt>
      <trkpt lat="43.53356" lon="5.56997">
        <ele>564</ele>
        <time>2022-09-10T05:38:23Z</time>
      </trkpt>
      <trkpt lat="43.53364" lon="5.57013">
        <ele>566</ele>
        <time>2022-09-10T05:38:35Z</time>
      </trkpt>
      <trkpt lat="43.53367" lon="5.57018">
        <ele>566</ele>
        <time>2022-09-10T05:38:39Z</time>
      </trkpt>
      <trkpt lat="43.53372" lon="5.57019">
        <ele>566</ele>
        <time>2022-09-10T05:38:43Z</time>
      </trkpt>
      <trkpt lat="43.53377" lon="5.57018">
        <ele>567</ele>
        <time>2022-09-10T05:38:47Z</time>
      </trkpt>
      <trkpt lat="43.53387" lon="5.57022">
        <ele>568</ele>
        <time>2022-09-10T05:38:57Z</time>
      </trkpt>
      <trkpt lat="43.53392" lon="5.57022">
        <ele>569</ele>
        <time>2022-09-10T05:39:04Z</time>
      </trkpt>
      <trkpt lat="43.53396" lon="5.57019">
        <ele>571</ele>
        <time>2022-09-10T05:39:09Z</time>
      </trkpt>
      <trkpt lat="43.53404" lon="5.57017">
        <ele>573</ele>
        <time>2022-09-10T05:39:19Z</time>
      </trkpt>
      <trkpt lat="43.53411" lon="5.57022">
        <ele>576</ele>
        <time>2022-09-10T05:39:30Z</time>
      </trkpt>
      <trkpt lat="43.53416" lon="5.57019">
        <ele>578</ele>
        <time>2022-09-10T05:39:37Z</time>
      </trkpt>
      <trkpt lat="43.53422" lon="5.57023">
        <ele>579</ele>
        <time>2022-09-10T05:39:47Z</time>
      </trkpt>
      <trkpt lat="43.53427" lon="5.57025">
        <ele>581</ele>
        <time>2022-09-10T05:39:57Z</time>
      </trkpt>
      <trkpt lat="43.53431" lon="5.5703">
        <ele>582</ele>
        <time>2022-09-10T05:40:07Z</time>
      </trkpt>
      <trkpt lat="43.53433" lon="5.57037">
        <ele>584</ele>
        <time>2022-09-10T05:40:17Z</time>
      </trkpt>
      <trkpt lat="43.53441" lon="5.57039">
        <ele>586</ele>
        <time>2022-09-10T05:40:27Z</time>
      </trkpt>
      <trkpt lat="43.53458" lon="5.57048">
        <ele>590</ele>
        <time>2022-09-10T05:40:54Z</time>
      </trkpt>
      <trkpt lat="43.53463" lon="5.57048">
        <ele>592</ele>
        <time>2022-09-10T05:41:01Z</time>
      </trkpt>
      <trkpt lat="43.53479" lon="5.5705">
        <ele>597</ele>
        <time>2022-09-10T05:41:41Z</time>
      </trkpt>
      <trkpt lat="43.53483" lon="5.57048">
        <ele>598</ele>
        <time>2022-09-10T05:41:46Z</time>
      </trkpt>
      <trkpt lat="43.53492" lon="5.57041">
        <ele>599</ele>
        <time>2022-09-10T05:41:56Z</time>
      </trkpt>
      <trkpt lat="43.53494" lon="5.57046">
        <ele>600</ele>
        <time>2022-09-10T05:42:05Z</time>
      </trkpt>
      <trkpt lat="43.53502" lon="5.57057">
        <ele>606</ele>
        <time>2022-09-10T05:42:30Z</time>
      </trkpt>
      <trkpt lat="43.53522" lon="5.57053">
        <ele>612</ele>
        <time>2022-09-10T05:43:03Z</time>
      </trkpt>
      <trkpt lat="43.53526" lon="5.57056">
        <ele>614</ele>
        <time>2022-09-10T05:43:13Z</time>
      </trkpt>
      <trkpt lat="43.53537" lon="5.57055">
        <ele>619</ele>
        <time>2022-09-10T05:43:33Z</time>
      </trkpt>
      <trkpt lat="43.53542" lon="5.57054">
        <ele>621</ele>
        <time>2022-09-10T05:43:43Z</time>
      </trkpt>
      <trkpt lat="43.53544" lon="5.5706">
        <ele>625</ele>
        <time>2022-09-10T05:44:03Z</time>
      </trkpt>
      <trkpt lat="43.53544" lon="5.57067">
        <ele>627</ele>
        <time>2022-09-10T05:44:08Z</time>
      </trkpt>
      <trkpt lat="43.53549" lon="5.57069">
        <ele>627</ele>
        <time>2022-09-10T05:46:12Z</time>
      </trkpt>
      <trkpt lat="43.53553" lon="5.57071">
        <ele>631</ele>
        <time>2022-09-10T05:46:27Z</time>
      </trkpt>
      <trkpt lat="43.53559" lon="5.57071">
        <ele>634</ele>
        <time>2022-09-10T05:46:37Z</time>
      </trkpt>
      <trkpt lat="43.53565" lon="5.57072">
        <ele>636</ele>
        <time>2022-09-10T05:46:47Z</time>
      </trkpt>
      <trkpt lat="43.53574" lon="5.57069">
        <ele>638</ele>
        <time>2022-09-10T05:46:59Z</time>
      </trkpt>
      <trkpt lat="43.53585" lon="5.5707">
        <ele>642</ele>
        <time>2022-09-10T05:47:20Z</time>
      </trkpt>
      <trkpt lat="43.53595" lon="5.57078">
        <ele>648</ele>
        <time>2022-09-10T05:47:50Z</time>
      </trkpt>
      <trkpt lat="43.536" lon="5.57076">
        <ele>650</ele>
        <time>2022-09-10T05:48:00Z</time>
      </trkpt>
      <trkpt lat="43.53607" lon="5.57076">
        <ele>652</ele>
        <time>2022-09-10T05:48:15Z</time>
      </trkpt>
      <trkpt lat="43.53617" lon="5.57077">
        <ele>657</ele>
        <time>2022-09-10T05:48:35Z</time>
      </trkpt>
      <trkpt lat="43.53622" lon="5.5708">
        <ele>659</ele>
        <time>2022-09-10T05:48:45Z</time>
      </trkpt>
      <trkpt lat="43.53627" lon="5.57083">
        <ele>663</ele>
        <time>2022-09-10T05:49:02Z</time>
      </trkpt>
      <trkpt lat="43.53631" lon="5.57088">
        <ele>665</ele>
        <time>2022-09-10T05:49:13Z</time>
      </trkpt>
      <trkpt lat="43.53637" lon="5.57089">
        <ele>667</ele>
        <time>2022-09-10T05:49:23Z</time>
      </trkpt>
      <trkpt lat="43.53642" lon="5.5709">
        <ele>670</ele>
        <time>2022-09-10T05:49:38Z</time>
      </trkpt>
      <trkpt lat="43.53648" lon="5.57086">
        <ele>671</ele>
        <time>2022-09-10T05:50:08Z</time>
      </trkpt>
      <trkpt lat="43.53652" lon="5.57084">
        <ele>671</ele>
        <time>2022-09-10T05:50:12Z</time>
      </trkpt>
      <trkpt lat="43.53655" lon="5.57078">
        <ele>672</ele>
        <time>2022-09-10T05:50:16Z</time>
      </trkpt>
      <trkpt lat="43.53659" lon="5.57076">
        <ele>672</ele>
        <time>2022-09-10T05:50:21Z</time>
      </trkpt>
      <trkpt lat="43.53665" lon="5.57073">
        <ele>674</ele>
        <time>2022-09-10T05:50:29Z</time>
      </trkpt>
      <trkpt lat="43.53668" lon="5.57069">
        <ele>676</ele>
        <time>2022-09-10T05:50:50Z</time>
      </trkpt>
      <trkpt lat="43.5367" lon="5.57062">
        <ele>674</ele>
        <time>2022-09-10T05:55:12Z</time>
      </trkpt>
      <trkpt lat="43.53674" lon="5.57063">
        <ele>674</ele>
        <time>2022-09-10T05:55:16Z</time>
      </trkpt>
      <trkpt lat="43.53671" lon="5.57069">
        <ele>672</ele>
        <time>2022-09-10T05:55:55Z</time>
      </trkpt>
      <trkpt lat="43.53667" lon="5.57072">
        <ele>674</ele>
        <time>2022-09-10T05:56:10Z</time>
      </trkpt>
      <trkpt lat="43.53664" lon="5.57076">
        <ele>675</ele>
        <time>2022-09-10T05:58:03Z</time>
      </trkpt>
      <trkpt lat="43.53665" lon="5.57084">
        <ele>675</ele>
        <time>2022-09-10T05:58:19Z</time>
      </trkpt>
      <trkpt lat="43.53665" lon="5.57091">
        <ele>676</ele>
        <time>2022-09-10T05:58:25Z</time>
      </trkpt>
      <trkpt lat="43.5366" lon="5.571">
        <ele>679</ele>
        <time>2022-09-10T05:58:38Z</time>
      </trkpt>
      <trkpt lat="43.53657" lon="5.5712">
        <ele>682</ele>
        <time>2022-09-10T05:58:57Z</time>
      </trkpt>
      <trkpt lat="43.53655" lon="5.57126">
        <ele>683</ele>
        <time>2022-09-10T05:59:02Z</time>
      </trkpt>
      <trkpt lat="43.53651" lon="5.5714">
        <ele>685</ele>
        <time>2022-09-10T05:59:18Z</time>
      </trkpt>
      <trkpt lat="43.53652" lon="5.57148">
        <ele>686</ele>
        <time>2022-09-10T05:59:25Z</time>
      </trkpt>
      <trkpt lat="43.53648" lon="5.57156">
        <ele>689</ele>
        <time>2022-09-10T05:59:37Z</time>
      </trkpt>
      <trkpt lat="43.53642" lon="5.5716">
        <ele>692</ele>
        <time>2022-09-10T05:59:49Z</time>
      </trkpt>
      <trkpt lat="43.53637" lon="5.57159">
        <ele>693</ele>
        <time>2022-09-10T05:59:59Z</time>
      </trkpt>
      <trkpt lat="43.53631" lon="5.57159">
        <ele>697</ele>
        <time>2022-09-10T06:00:14Z</time>
      </trkpt>
      <trkpt lat="43.53629" lon="5.57164">
        <ele>697</ele>
        <time>2022-09-10T06:00:19Z</time>
      </trkpt>
      <trkpt lat="43.53627" lon="5.57171">
        <ele>699</ele>
        <time>2022-09-10T06:00:31Z</time>
      </trkpt>
      <trkpt lat="43.53617" lon="5.57182">
        <ele>704</ele>
        <time>2022-09-10T06:00:56Z</time>
      </trkpt>
      <trkpt lat="43.53613" lon="5.57189">
        <ele>706</ele>
        <time>2022-09-10T06:01:06Z</time>
      </trkpt>
      <trkpt lat="43.53605" lon="5.57203">
        <ele>708</ele>
        <time>2022-09-10T06:01:31Z</time>
      </trkpt>
      <trkpt lat="43.53601" lon="5.57206">
        <ele>710</ele>
        <time>2022-09-10T06:01:39Z</time>
      </trkpt>
      <trkpt lat="43.53597" lon="5.57204">
        <ele>711</ele>
        <time>2022-09-10T06:01:45Z</time>
      </trkpt>
      <trkpt lat="43.53594" lon="5.57199">
        <ele>712</ele>
        <time>2022-09-10T06:01:50Z</time>
      </trkpt>
      <trkpt lat="43.53581" lon="5.57201">
        <ele>716</ele>
        <time>2022-09-10T06:02:07Z</time>
      </trkpt>
      <trkpt lat="43.53561" lon="5.57229">
        <ele>720</ele>
        <time>2022-09-10T06:02:43Z</time>
      </trkpt>
      <trkpt lat="43.5356" lon="5.57236">
        <ele>721</ele>
        <time>2022-09-10T06:02:47Z</time>
      </trkpt>
      <trkpt lat="43.53556" lon="5.57242">
        <ele>721</ele>
        <time>2022-09-10T06:02:54Z</time>
      </trkpt>
      <trkpt lat="43.53551" lon="5.57245">
        <ele>722</ele>
        <time>2022-09-10T06:03:01Z</time>
      </trkpt>
      <trkpt lat="43.53547" lon="5.5725">
        <ele>723</ele>
        <time>2022-09-10T06:03:06Z</time>
      </trkpt>
      <trkpt lat="43.53539" lon="5.57257">
        <ele>723</ele>
        <time>2022-09-10T06:03:16Z</time>
      </trkpt>
      <trkpt lat="43.5353" lon="5.57266">
        <ele>726</ele>
        <time>2022-09-10T06:03:31Z</time>
      </trkpt>
      <trkpt lat="43.53528" lon="5.57272">
        <ele>726</ele>
        <time>2022-09-10T06:03:35Z</time>
      </trkpt>
      <trkpt lat="43.53527" lon="5.57279">
        <ele>727</ele>
        <time>2022-09-10T06:03:42Z</time>
      </trkpt>
      <trkpt lat="43.5352" lon="5.5728">
        <ele>729</ele>
        <time>2022-09-10T06:03:53Z</time>
      </trkpt>
      <trkpt lat="43.53516" lon="5.57283">
        <ele>730</ele>
        <time>2022-09-10T06:03:58Z</time>
      </trkpt>
      <trkpt lat="43.5351" lon="5.57305">
        <ele>733</ele>
        <time>2022-09-10T06:04:17Z</time>
      </trkpt>
      <trkpt lat="43.53503" lon="5.57312">
        <ele>735</ele>
        <time>2022-09-10T06:04:28Z</time>
      </trkpt>
      <trkpt lat="43.53501" lon="5.57318">
        <ele>736</ele>
        <time>2022-09-10T06:04:33Z</time>
      </trkpt>
      <trkpt lat="43.53496" lon="5.57318">
        <ele>736</ele>
        <time>2022-09-10T06:04:40Z</time>
      </trkpt>
      <trkpt lat="43.53492" lon="5.57313">
        <ele>737</ele>
        <time>2022-09-10T06:04:45Z</time>
      </trkpt>
      <trkpt lat="43.53488" lon="5.57312">
        <ele>737</ele>
        <time>2022-09-10T06:04:49Z</time>
      </trkpt>
      <trkpt lat="43.53484" lon="5.57317">
        <ele>739</ele>
        <time>2022-09-10T06:04:57Z</time>
      </trkpt>
      <trkpt lat="43.53483" lon="5.57324">
        <ele>740</ele>
        <time>2022-09-10T06:05:02Z</time>
      </trkpt>
      <trkpt lat="43.53479" lon="5.57329">
        <ele>741</ele>
        <time>2022-09-10T06:05:10Z</time>
      </trkpt>
      <trkpt lat="43.53474" lon="5.57329">
        <ele>742</ele>
        <time>2022-09-10T06:05:15Z</time>
      </trkpt>
      <trkpt lat="43.53469" lon="5.57334">
        <ele>743</ele>
        <time>2022-09-10T06:05:22Z</time>
      </trkpt>
      <trkpt lat="43.53458" lon="5.57346">
        <ele>748</ele>
        <time>2022-09-10T06:05:43Z</time>
      </trkpt>
      <trkpt lat="43.53451" lon="5.57349">
        <ele>750</ele>
        <time>2022-09-10T06:05:54Z</time>
      </trkpt>
      <trkpt lat="43.53447" lon="5.57354">
        <ele>751</ele>
        <time>2022-09-10T06:06:01Z</time>
      </trkpt>
      <trkpt lat="43.53443" lon="5.57355">
        <ele>751</ele>
        <time>2022-09-10T06:06:08Z</time>
      </trkpt>
      <trkpt lat="43.53439" lon="5.57359">
        <ele>752</ele>
        <time>2022-09-10T06:06:13Z</time>
      </trkpt>
      <trkpt lat="43.53427" lon="5.57362">
        <ele>754</ele>
        <time>2022-09-10T06:06:27Z</time>
      </trkpt>
      <trkpt lat="43.53423" lon="5.57366">
        <ele>756</ele>
        <time>2022-09-10T06:06:36Z</time>
      </trkpt>
      <trkpt lat="43.53419" lon="5.5737">
        <ele>758</ele>
        <time>2022-09-10T06:06:46Z</time>
      </trkpt>
      <trkpt lat="43.53415" lon="5.57375">
        <ele>760</ele>
        <time>2022-09-10T06:06:56Z</time>
      </trkpt>
      <trkpt lat="43.53408" lon="5.5738">
        <ele>762</ele>
        <time>2022-09-10T06:07:06Z</time>
      </trkpt>
      <trkpt lat="43.53399" lon="5.5739">
        <ele>766</ele>
        <time>2022-09-10T06:07:23Z</time>
      </trkpt>
      <trkpt lat="43.53388" lon="5.57394">
        <ele>769</ele>
        <time>2022-09-10T06:07:41Z</time>
      </trkpt>
      <trkpt lat="43.53384" lon="5.57398">
        <ele>770</ele>
        <time>2022-09-10T06:07:47Z</time>
      </trkpt>
      <trkpt lat="43.53378" lon="5.57397">
        <ele>771</ele>
        <time>2022-09-10T06:08:13Z</time>
      </trkpt>
      <trkpt lat="43.53378" lon="5.57403">
        <ele>774</ele>
        <time>2022-09-10T06:08:31Z</time>
      </trkpt>
      <trkpt lat="43.53375" lon="5.57408">
        <ele>775</ele>
        <time>2022-09-10T06:08:41Z</time>
      </trkpt>
      <trkpt lat="43.53372" lon="5.57412">
        <ele>777</ele>
        <time>2022-09-10T06:08:51Z</time>
      </trkpt>
      <trkpt lat="43.5337" lon="5.57422">
        <ele>780</ele>
        <time>2022-09-10T06:09:41Z</time>
      </trkpt>
      <trkpt lat="43.53363" lon="5.57437">
        <ele>784</ele>
        <time>2022-09-10T06:10:02Z</time>
      </trkpt>
      <trkpt lat="43.53362" lon="5.57443">
        <ele>787</ele>
        <time>2022-09-10T06:10:25Z</time>
      </trkpt>
      <trkpt lat="43.5336" lon="5.57448">
        <ele>788</ele>
        <time>2022-09-10T06:10:30Z</time>
      </trkpt>
      <trkpt lat="43.53362" lon="5.57464">
        <ele>790</ele>
        <time>2022-09-10T06:10:45Z</time>
      </trkpt>
      <trkpt lat="43.53355" lon="5.57459">
        <ele>793</ele>
        <time>2022-09-10T06:11:00Z</time>
      </trkpt>
      <trkpt lat="43.53351" lon="5.57453">
        <ele>794</ele>
        <time>2022-09-10T06:11:38Z</time>
      </trkpt>
      <trkpt lat="43.53344" lon="5.57443">
        <ele>795</ele>
        <time>2022-09-10T06:11:46Z</time>
      </trkpt>
      <trkpt lat="43.5334" lon="5.57438">
        <ele>795</ele>
        <time>2022-09-10T06:11:51Z</time>
      </trkpt>
      <trkpt lat="43.53337" lon="5.57432">
        <ele>795</ele>
        <time>2022-09-10T06:11:55Z</time>
      </trkpt>
      <trkpt lat="43.53332" lon="5.57433">
        <ele>796</ele>
        <time>2022-09-10T06:12:03Z</time>
      </trkpt>
      <trkpt lat="43.53328" lon="5.57435">
        <ele>798</ele>
        <time>2022-09-10T06:12:09Z</time>
      </trkpt>
      <trkpt lat="43.53326" lon="5.57441">
        <ele>799</ele>
        <time>2022-09-10T06:12:14Z</time>
      </trkpt>
      <trkpt lat="43.53329" lon="5.57449">
        <ele>802</ele>
        <time>2022-09-10T06:12:26Z</time>
      </trkpt>
      <trkpt lat="43.53334" lon="5.57451">
        <ele>802</ele>
        <time>2022-09-10T06:12:29Z</time>
      </trkpt>
      <trkpt lat="43.53333" lon="5.57462">
        <ele>803</ele>
        <time>2022-09-10T06:12:39Z</time>
      </trkpt>
      <trkpt lat="43.53326" lon="5.57467">
        <ele>805</ele>
        <time>2022-09-10T06:12:49Z</time>
      </trkpt>
      <trkpt lat="43.53321" lon="5.57469">
        <ele>807</ele>
        <time>2022-09-10T06:12:59Z</time>
      </trkpt>
      <trkpt lat="43.53315" lon="5.57475">
        <ele>810</ele>
        <time>2022-09-10T06:13:09Z</time>
      </trkpt>
      <trkpt lat="43.5331" lon="5.57473">
        <ele>813</ele>
        <time>2022-09-10T06:13:21Z</time>
      </trkpt>
      <trkpt lat="43.53306" lon="5.57472">
        <ele>814</ele>
        <time>2022-09-10T06:13:28Z</time>
      </trkpt>
      <trkpt lat="43.53302" lon="5.57489">
        <ele>819</ele>
        <time>2022-09-10T06:13:53Z</time>
      </trkpt>
      <trkpt lat="43.53297" lon="5.57494">
        <ele>821</ele>
        <time>2022-09-10T06:14:04Z</time>
      </trkpt>
      <trkpt lat="43.53294" lon="5.57504">
        <ele>824</ele>
        <time>2022-09-10T06:14:15Z</time>
      </trkpt>
      <trkpt lat="43.53288" lon="5.57508">
        <ele>826</ele>
        <time>2022-09-10T06:14:27Z</time>
      </trkpt>
      <trkpt lat="43.53284" lon="5.57515">
        <ele>827</ele>
        <time>2022-09-10T06:14:37Z</time>
      </trkpt>
      <trkpt lat="43.53278" lon="5.57518">
        <ele>829</ele>
        <time>2022-09-10T06:14:48Z</time>
      </trkpt>
      <trkpt lat="43.53275" lon="5.57523">
        <ele>831</ele>
        <time>2022-09-10T06:14:58Z</time>
      </trkpt>
      <trkpt lat="43.5327" lon="5.57523">
        <ele>833</ele>
        <time>2022-09-10T06:15:08Z</time>
      </trkpt>
      <trkpt lat="43.53266" lon="5.57536">
        <ele>837</ele>
        <time>2022-09-10T06:15:38Z</time>
      </trkpt>
      <trkpt lat="43.5326" lon="5.57541">
        <ele>839</ele>
        <time>2022-09-10T06:16:46Z</time>
      </trkpt>
      <trkpt lat="43.53255" lon="5.57542">
        <ele>841</ele>
        <time>2022-09-10T06:16:56Z</time>
      </trkpt>
      <trkpt lat="43.53252" lon="5.57546">
        <ele>843</ele>
        <time>2022-09-10T06:17:06Z</time>
      </trkpt>
      <trkpt lat="43.53246" lon="5.57554">
        <ele>845</ele>
        <time>2022-09-10T06:17:16Z</time>
      </trkpt>
      <trkpt lat="43.53244" lon="5.57559">
        <ele>847</ele>
        <time>2022-09-10T06:17:24Z</time>
      </trkpt>
      <trkpt lat="43.53243" lon="5.5757">
        <ele>849</ele>
        <time>2022-09-10T06:17:34Z</time>
      </trkpt>
      <trkpt lat="43.53239" lon="5.57573">
        <ele>853</ele>
        <time>2022-09-10T06:17:46Z</time>
      </trkpt>
      <trkpt lat="43.53235" lon="5.57578">
        <ele>854</ele>
        <time>2022-09-10T06:17:53Z</time>
      </trkpt>
      <trkpt lat="43.53229" lon="5.57579">
        <ele>857</ele>
        <time>2022-09-10T06:18:05Z</time>
      </trkpt>
      <trkpt lat="43.53225" lon="5.57584">
        <ele>860</ele>
        <time>2022-09-10T06:18:15Z</time>
      </trkpt>
      <trkpt lat="43.53225" lon="5.57591">
        <ele>860</ele>
        <time>2022-09-10T06:18:19Z</time>
      </trkpt>
      <trkpt lat="43.53218" lon="5.57593">
        <ele>863</ele>
        <time>2022-09-10T06:18:33Z</time>
      </trkpt>
      <trkpt lat="43.53216" lon="5.57612">
        <ele>867</ele>
        <time>2022-09-10T06:18:51Z</time>
      </trkpt>
      <trkpt lat="43.53213" lon="5.57635">
        <ele>870</ele>
        <time>2022-09-10T06:19:15Z</time>
      </trkpt>
      <trkpt lat="43.53209" lon="5.5764">
        <ele>870</ele>
        <time>2022-09-10T06:19:19Z</time>
      </trkpt>
      <trkpt lat="43.53208" lon="5.57648">
        <ele>871</ele>
        <time>2022-09-10T06:19:26Z</time>
      </trkpt>
      <trkpt lat="43.53201" lon="5.57664">
        <ele>874</ele>
        <time>2022-09-10T06:19:43Z</time>
      </trkpt>
      <trkpt lat="43.53201" lon="5.57671">
        <ele>874</ele>
        <time>2022-09-10T06:19:48Z</time>
      </trkpt>
      <trkpt lat="43.53198" lon="5.57678">
        <ele>875</ele>
        <time>2022-09-10T06:19:53Z</time>
      </trkpt>
      <trkpt lat="43.53196" lon="5.57685">
        <ele>876</ele>
        <time>2022-09-10T06:20:02Z</time>
      </trkpt>
      <trkpt lat="43.53195" lon="5.57691">
        <ele>877</ele>
        <time>2022-09-10T06:20:07Z</time>
      </trkpt>
      <trkpt lat="43.53195" lon="5.57698">
        <ele>877</ele>
        <time>2022-09-10T06:20:11Z</time>
      </trkpt>
      <trkpt lat="43.53193" lon="5.57706">
        <ele>877</ele>
        <time>2022-09-10T06:20:15Z</time>
      </trkpt>
      <trkpt lat="43.53191" lon="5.57716">
        <ele>878</ele>
        <time>2022-09-10T06:20:23Z</time>
      </trkpt>
      <trkpt lat="43.53188" lon="5.5772">
        <ele>879</ele>
        <time>2022-09-10T06:20:28Z</time>
      </trkpt>
      <trkpt lat="43.53185" lon="5.5773">
        <ele>882</ele>
        <time>2022-09-10T06:20:37Z</time>
      </trkpt>
      <trkpt lat="43.53186" lon="5.57741">
        <ele>882</ele>
        <time>2022-09-10T06:20:45Z</time>
      </trkpt>
      <trkpt lat="43.53186" lon="5.57752">
        <ele>883</ele>
        <time>2022-09-10T06:20:55Z</time>
      </trkpt>
      <trkpt lat="43.53185" lon="5.57764">
        <ele>884</ele>
        <time>2022-09-10T06:21:05Z</time>
      </trkpt>
      <trkpt lat="43.53187" lon="5.5777">
        <ele>884</ele>
        <time>2022-09-10T06:21:08Z</time>
      </trkpt>
      <trkpt lat="43.53184" lon="5.57791">
        <ele>885</ele>
        <time>2022-09-10T06:21:23Z</time>
      </trkpt>
      <trkpt lat="43.53183" lon="5.57797">
        <ele>886</ele>
        <time>2022-09-10T06:21:31Z</time>
      </trkpt>
      <trkpt lat="43.53179" lon="5.57801">
        <ele>886</ele>
        <time>2022-09-10T06:22:02Z</time>
      </trkpt>
      <trkpt lat="43.53174" lon="5.57816">
        <ele>890</ele>
        <time>2022-09-10T06:22:21Z</time>
      </trkpt>
      <trkpt lat="43.53167" lon="5.57818">
        <ele>890</ele>
        <time>2022-09-10T06:23:04Z</time>
      </trkpt>
      <trkpt lat="43.53166" lon="5.57824">
        <ele>890</ele>
        <time>2022-09-10T06:23:08Z</time>
      </trkpt>
      <trkpt lat="43.53161" lon="5.5783">
        <ele>889</ele>
        <time>2022-09-10T06:23:13Z</time>
      </trkpt>
      <trkpt lat="43.53157" lon="5.57831">
        <ele>890</ele>
        <time>2022-09-10T06:23:17Z</time>
      </trkpt>
      <trkpt lat="43.53152" lon="5.57832">
        <ele>889</ele>
        <time>2022-09-10T06:23:20Z</time>
      </trkpt>
      <trkpt lat="43.53147" lon="5.57833">
        <ele>889</ele>
        <time>2022-09-10T06:23:26Z</time>
      </trkpt>
      <trkpt lat="43.53139" lon="5.57839">
        <ele>889</ele>
        <time>2022-09-10T06:23:34Z</time>
      </trkpt>
      <trkpt lat="43.53139" lon="5.57846">
        <ele>891</ele>
        <time>2022-09-10T06:23:38Z</time>
      </trkpt>
      <trkpt lat="43.53147" lon="5.57842">
        <ele>892</ele>
        <time>2022-09-10T06:25:02Z</time>
      </trkpt>
      <trkpt lat="43.53152" lon="5.57839">
        <ele>890</ele>
        <time>2022-09-10T06:25:07Z</time>
      </trkpt>
      <trkpt lat="43.53156" lon="5.57838">
        <ele>889</ele>
        <time>2022-09-10T06:25:11Z</time>
      </trkpt>
      <trkpt lat="43.53162" lon="5.57842">
        <ele>888</ele>
        <time>2022-09-10T06:25:18Z</time>
      </trkpt>
      <trkpt lat="43.53165" lon="5.57848">
        <ele>889</ele>
        <time>2022-09-10T06:25:22Z</time>
      </trkpt>
      <trkpt lat="43.53172" lon="5.5785">
        <ele>890</ele>
        <time>2022-09-10T06:25:30Z</time>
      </trkpt>
      <trkpt lat="43.5317" lon="5.57856">
        <ele>890</ele>
        <time>2022-09-10T06:25:36Z</time>
      </trkpt>
      <trkpt lat="43.53169" lon="5.57862">
        <ele>891</ele>
        <time>2022-09-10T06:25:40Z</time>
      </trkpt>
      <trkpt lat="43.53169" lon="5.5787">
        <ele>890</ele>
        <time>2022-09-10T06:25:49Z</time>
      </trkpt>
      <trkpt lat="43.53167" lon="5.57879">
        <ele>892</ele>
        <time>2022-09-10T06:26:00Z</time>
      </trkpt>
      <trkpt lat="43.53163" lon="5.57876">
        <ele>894</ele>
        <time>2022-09-10T06:26:10Z</time>
      </trkpt>
      <trkpt lat="43.53158" lon="5.57881">
        <ele>898</ele>
        <time>2022-09-10T06:26:30Z</time>
      </trkpt>
      <trkpt lat="43.53155" lon="5.57884">
        <ele>900</ele>
        <time>2022-09-10T06:26:45Z</time>
      </trkpt>
      <trkpt lat="43.5315" lon="5.57882">
        <ele>902</ele>
        <time>2022-09-10T06:26:56Z</time>
      </trkpt>
      <trkpt lat="43.53147" lon="5.57876">
        <ele>905</ele>
        <time>2022-09-10T06:27:07Z</time>
      </trkpt>
      <trkpt lat="43.53143" lon="5.57883">
        <ele>908</ele>
        <time>2022-09-10T06:27:28Z</time>
      </trkpt>
      <trkpt lat="43.53144" lon="5.579">
        <ele>912</ele>
        <time>2022-09-10T06:27:45Z</time>
      </trkpt>
      <trkpt lat="43.53142" lon="5.57908">
        <ele>913</ele>
        <time>2022-09-10T06:27:56Z</time>
      </trkpt>
      <trkpt lat="43.53139" lon="5.57916">
        <ele>915</ele>
        <time>2022-09-10T06:28:07Z</time>
      </trkpt>
      <trkpt lat="43.53135" lon="5.57923">
        <ele>919</ele>
        <time>2022-09-10T06:28:38Z</time>
      </trkpt>
      <trkpt lat="43.53126" lon="5.57944">
        <ele>926</ele>
        <time>2022-09-10T06:29:11Z</time>
      </trkpt>
      <trkpt lat="43.53126" lon="5.5795">
        <ele>927</ele>
        <time>2022-09-10T06:29:16Z</time>
      </trkpt>
      <trkpt lat="43.53122" lon="5.57959">
        <ele>927</ele>
        <time>2022-09-10T06:29:26Z</time>
      </trkpt>
      <trkpt lat="43.53117" lon="5.57966">
        <ele>925</ele>
        <time>2022-09-10T06:29:36Z</time>
      </trkpt>
      <trkpt lat="43.53112" lon="5.57971">
        <ele>927</ele>
        <time>2022-09-10T06:29:47Z</time>
      </trkpt>
      <trkpt lat="43.53103" lon="5.57993">
        <ele>932</ele>
        <time>2022-09-10T06:30:17Z</time>
      </trkpt>
      <trkpt lat="43.53103" lon="5.58001">
        <ele>934</ele>
        <time>2022-09-10T06:30:27Z</time>
      </trkpt>
      <trkpt lat="43.53102" lon="5.58007">
        <ele>936</ele>
        <time>2022-09-10T06:30:33Z</time>
      </trkpt>
      <trkpt lat="43.531" lon="5.58004">
        <ele>941</ele>
        <time>2022-09-10T06:30:53Z</time>
      </trkpt>
      <trkpt lat="43.53097" lon="5.58">
        <ele>942</ele>
        <time>2022-09-10T06:31:04Z</time>
      </trkpt>
      <trkpt lat="43.53092" lon="5.58005">
        <ele>945</ele>
        <time>2022-09-10T06:31:20Z</time>
      </trkpt>
      <trkpt lat="43.53088" lon="5.58009">
        <ele>947</ele>
        <time>2022-09-10T06:31:30Z</time>
      </trkpt>
      <trkpt lat="43.53091" lon="5.58013">
        <ele>948</ele>
        <time>2022-09-10T06:33:17Z</time>
      </trkpt>
      <trkpt lat="43.5309" lon="5.58015">
        <ele>948</ele>
        <time>2022-09-10T06:35:42Z</time>
      </trkpt>
      <trkpt lat="43.53088" lon="5.58018">
        <ele>949</ele>
        <time>2022-09-10T06:44:57Z</time>
      </trkpt>
      <trkpt lat="43.5309" lon="5.58016">
        <ele>952</ele>
        <time>2022-09-10T06:50:06Z</time>
      </trkpt>
      <trkpt lat="43.53091" lon="5.58022">
        <ele>947</ele>
        <time>2022-09-10T06:56:16Z</time>
      </trkpt>
      <trkpt lat="43.53097" lon="5.58032">
        <ele>943</ele>
        <time>2022-09-10T06:56:36Z</time>
      </trkpt>
      <trkpt lat="43.53101" lon="5.58025">
        <ele>940</ele>
        <time>2022-09-10T06:56:41Z</time>
      </trkpt>
      <trkpt lat="43.53103" lon="5.5802">
        <ele>940</ele>
        <time>2022-09-10T06:56:45Z</time>
      </trkpt>
      <trkpt lat="43.53102" lon="5.58013">
        <ele>941</ele>
        <time>2022-09-10T06:56:49Z</time>
      </trkpt>
      <trkpt lat="43.53104" lon="5.58007">
        <ele>942</ele>
        <time>2022-09-10T06:56:56Z</time>
      </trkpt>
      <trkpt lat="43.53105" lon="5.57999">
        <ele>938</ele>
        <time>2022-09-10T06:57:06Z</time>
      </trkpt>
      <trkpt lat="43.53106" lon="5.57992">
        <ele>936</ele>
        <time>2022-09-10T06:57:11Z</time>
      </trkpt>
      <trkpt lat="43.53107" lon="5.57986">
        <ele>934</ele>
        <time>2022-09-10T06:57:18Z</time>
      </trkpt>
      <trkpt lat="43.53109" lon="5.57979">
        <ele>931</ele>
        <time>2022-09-10T06:57:28Z</time>
      </trkpt>
      <trkpt lat="43.5311" lon="5.57974">
        <ele>930</ele>
        <time>2022-09-10T06:57:33Z</time>
      </trkpt>
      <trkpt lat="43.53116" lon="5.57969">
        <ele>927</ele>
        <time>2022-09-10T06:57:43Z</time>
      </trkpt>
      <trkpt lat="43.53119" lon="5.57962">
        <ele>926</ele>
        <time>2022-09-10T06:57:49Z</time>
      </trkpt>
      <trkpt lat="43.53121" lon="5.57954">
        <ele>927</ele>
        <time>2022-09-10T06:57:56Z</time>
      </trkpt>
      <trkpt lat="43.53123" lon="5.57948">
        <ele>927</ele>
        <time>2022-09-10T06:58:00Z</time>
      </trkpt>
      <trkpt lat="43.53126" lon="5.57943">
        <ele>928</ele>
        <time>2022-09-10T06:58:07Z</time>
      </trkpt>
      <trkpt lat="43.53129" lon="5.57935">
        <ele>925</ele>
        <time>2022-09-10T06:58:17Z</time>
      </trkpt>
      <trkpt lat="43.53133" lon="5.57919">
        <ele>918</ele>
        <time>2022-09-10T06:58:41Z</time>
      </trkpt>
      <trkpt lat="43.53136" lon="5.57916">
        <ele>915</ele>
        <time>2022-09-10T06:58:56Z</time>
      </trkpt>
      <trkpt lat="43.53138" lon="5.57904">
        <ele>913</ele>
        <time>2022-09-10T06:59:06Z</time>
      </trkpt>
      <trkpt lat="43.53142" lon="5.57895">
        <ele>911</ele>
        <time>2022-09-10T06:59:16Z</time>
      </trkpt>
      <trkpt lat="43.53144" lon="5.57887">
        <ele>910</ele>
        <time>2022-09-10T06:59:26Z</time>
      </trkpt>
      <trkpt lat="43.53144" lon="5.57877">
        <ele>907</ele>
        <time>2022-09-10T06:59:40Z</time>
      </trkpt>
      <trkpt lat="43.53151" lon="5.57879">
        <ele>906</ele>
        <time>2022-09-10T06:59:56Z</time>
      </trkpt>
      <trkpt lat="43.53153" lon="5.57885">
        <ele>906</ele>
        <time>2022-09-10T07:00:00Z</time>
      </trkpt>
      <trkpt lat="43.53161" lon="5.57883">
        <ele>895</ele>
        <time>2022-09-10T07:00:47Z</time>
      </trkpt>
      <trkpt lat="43.53166" lon="5.5788">
        <ele>894</ele>
        <time>2022-09-10T07:00:53Z</time>
      </trkpt>
      <trkpt lat="43.53167" lon="5.57873">
        <ele>893</ele>
        <time>2022-09-10T07:00:58Z</time>
      </trkpt>
      <trkpt lat="43.53171" lon="5.57869">
        <ele>891</ele>
        <time>2022-09-10T07:01:07Z</time>
      </trkpt>
      <trkpt lat="43.53174" lon="5.5786">
        <ele>890</ele>
        <time>2022-09-10T07:01:14Z</time>
      </trkpt>
      <trkpt lat="43.53179" lon="5.57866">
        <ele>888</ele>
        <time>2022-09-10T07:01:22Z</time>
      </trkpt>
      <trkpt lat="43.53177" lon="5.57863">
        <ele>886</ele>
        <time>2022-09-10T07:02:06Z</time>
      </trkpt>
      <trkpt lat="43.53175" lon="5.57845">
        <ele>889</ele>
        <time>2022-09-10T07:02:16Z</time>
      </trkpt>
      <trkpt lat="43.53175" lon="5.57838">
        <ele>889</ele>
        <time>2022-09-10T07:02:20Z</time>
      </trkpt>
      <trkpt lat="43.53178" lon="5.57814">
        <ele>887</ele>
        <time>2022-09-10T07:02:29Z</time>
      </trkpt>
      <trkpt lat="43.53174" lon="5.57812">
        <ele>890</ele>
        <time>2022-09-10T07:02:43Z</time>
      </trkpt>
      <trkpt lat="43.53179" lon="5.57808">
        <ele>891</ele>
        <time>2022-09-10T07:02:56Z</time>
      </trkpt>
      <trkpt lat="43.53184" lon="5.57785">
        <ele>886</ele>
        <time>2022-09-10T07:03:06Z</time>
      </trkpt>
      <trkpt lat="43.53185" lon="5.57778">
        <ele>886</ele>
        <time>2022-09-10T07:03:08Z</time>
      </trkpt>
      <trkpt lat="43.53187" lon="5.57772">
        <ele>885</ele>
        <time>2022-09-10T07:03:10Z</time>
      </trkpt>
      <trkpt lat="43.53186" lon="5.57766">
        <ele>885</ele>
        <time>2022-09-10T07:03:12Z</time>
      </trkpt>
      <trkpt lat="43.53185" lon="5.57757">
        <ele>884</ele>
        <time>2022-09-10T07:03:21Z</time>
      </trkpt>
      <trkpt lat="43.53186" lon="5.57738">
        <ele>882</ele>
        <time>2022-09-10T07:03:36Z</time>
      </trkpt>
      <trkpt lat="43.53186" lon="5.57747">
        <ele>881</ele>
        <time>2022-09-10T07:03:55Z</time>
      </trkpt>
      <trkpt lat="43.53186" lon="5.57766">
        <ele>883</ele>
        <time>2022-09-10T07:04:09Z</time>
      </trkpt>
      <trkpt lat="43.53184" lon="5.57762">
        <ele>883</ele>
        <time>2022-09-10T07:04:26Z</time>
      </trkpt>
      <trkpt lat="43.53183" lon="5.57737">
        <ele>882</ele>
        <time>2022-09-10T07:04:42Z</time>
      </trkpt>
      <trkpt lat="43.53185" lon="5.57729">
        <ele>881</ele>
        <time>2022-09-10T07:04:50Z</time>
      </trkpt>
      <trkpt lat="43.53192" lon="5.57712">
        <ele>878</ele>
        <time>2022-09-10T07:05:05Z</time>
      </trkpt>
      <trkpt lat="43.53195" lon="5.57697">
        <ele>877</ele>
        <time>2022-09-10T07:05:12Z</time>
      </trkpt>
      <trkpt lat="43.53194" lon="5.5769">
        <ele>876</ele>
        <time>2022-09-10T07:05:16Z</time>
      </trkpt>
      <trkpt lat="43.53202" lon="5.5768">
        <ele>875</ele>
        <time>2022-09-10T07:05:23Z</time>
      </trkpt>
      <trkpt lat="43.53203" lon="5.57667">
        <ele>874</ele>
        <time>2022-09-10T07:05:33Z</time>
      </trkpt>
      <trkpt lat="43.53211" lon="5.57653">
        <ele>873</ele>
        <time>2022-09-10T07:05:50Z</time>
      </trkpt>
      <trkpt lat="43.53212" lon="5.57639">
        <ele>871</ele>
        <time>2022-09-10T07:05:59Z</time>
      </trkpt>
      <trkpt lat="43.53218" lon="5.57622">
        <ele>869</ele>
        <time>2022-09-10T07:06:16Z</time>
      </trkpt>
      <trkpt lat="43.53218" lon="5.57606">
        <ele>867</ele>
        <time>2022-09-10T07:06:32Z</time>
      </trkpt>
      <trkpt lat="43.53219" lon="5.576">
        <ele>866</ele>
        <time>2022-09-10T07:06:43Z</time>
      </trkpt>
      <trkpt lat="43.53224" lon="5.57597">
        <ele>864</ele>
        <time>2022-09-10T07:06:55Z</time>
      </trkpt>
      <trkpt lat="43.53227" lon="5.57589">
        <ele>863</ele>
        <time>2022-09-10T07:06:59Z</time>
      </trkpt>
      <trkpt lat="43.53227" lon="5.57584">
        <ele>861</ele>
        <time>2022-09-10T07:07:04Z</time>
      </trkpt>
      <trkpt lat="43.53233" lon="5.57577">
        <ele>858</ele>
        <time>2022-09-10T07:07:21Z</time>
      </trkpt>
      <trkpt lat="43.53237" lon="5.57582">
        <ele>856</ele>
        <time>2022-09-10T07:07:31Z</time>
      </trkpt>
      <trkpt lat="43.53245" lon="5.57563">
        <ele>851</ele>
        <time>2022-09-10T07:07:55Z</time>
      </trkpt>
      <trkpt lat="43.5325" lon="5.57556">
        <ele>848</ele>
        <time>2022-09-10T07:08:10Z</time>
      </trkpt>
      <trkpt lat="43.53254" lon="5.5755">
        <ele>847</ele>
        <time>2022-09-10T07:08:20Z</time>
      </trkpt>
      <trkpt lat="43.53258" lon="5.57547">
        <ele>845</ele>
        <time>2022-09-10T07:08:31Z</time>
      </trkpt>
      <trkpt lat="43.5327" lon="5.57525">
        <ele>839</ele>
        <time>2022-09-10T07:09:06Z</time>
      </trkpt>
      <trkpt lat="43.53276" lon="5.57529">
        <ele>838</ele>
        <time>2022-09-10T07:09:16Z</time>
      </trkpt>
      <trkpt lat="43.53282" lon="5.57521">
        <ele>835</ele>
        <time>2022-09-10T07:09:26Z</time>
      </trkpt>
      <trkpt lat="43.53287" lon="5.57519">
        <ele>833</ele>
        <time>2022-09-10T07:09:38Z</time>
      </trkpt>
      <trkpt lat="43.53289" lon="5.57506">
        <ele>831</ele>
        <time>2022-09-10T07:09:48Z</time>
      </trkpt>
      <trkpt lat="43.53293" lon="5.5751">
        <ele>830</ele>
        <time>2022-09-10T07:09:56Z</time>
      </trkpt>
      <trkpt lat="43.53298" lon="5.57498">
        <ele>827</ele>
        <time>2022-09-10T07:10:07Z</time>
      </trkpt>
      <trkpt lat="43.53302" lon="5.57488">
        <ele>824</ele>
        <time>2022-09-10T07:10:17Z</time>
      </trkpt>
      <trkpt lat="43.53306" lon="5.57484">
        <ele>823</ele>
        <time>2022-09-10T07:10:24Z</time>
      </trkpt>
      <trkpt lat="43.53307" lon="5.57479">
        <ele>822</ele>
        <time>2022-09-10T07:10:29Z</time>
      </trkpt>
      <trkpt lat="43.53315" lon="5.57481">
        <ele>819</ele>
        <time>2022-09-10T07:10:44Z</time>
      </trkpt>
      <trkpt lat="43.53318" lon="5.57475">
        <ele>816</ele>
        <time>2022-09-10T07:10:51Z</time>
      </trkpt>
      <trkpt lat="43.53328" lon="5.57469">
        <ele>812</ele>
        <time>2022-09-10T07:11:09Z</time>
      </trkpt>
      <trkpt lat="43.53332" lon="5.57466">
        <ele>810</ele>
        <time>2022-09-10T07:11:15Z</time>
      </trkpt>
      <trkpt lat="43.53333" lon="5.57457">
        <ele>807</ele>
        <time>2022-09-10T07:11:26Z</time>
      </trkpt>
      <trkpt lat="43.5333" lon="5.57451">
        <ele>807</ele>
        <time>2022-09-10T07:11:31Z</time>
      </trkpt>
      <trkpt lat="43.53327" lon="5.5744">
        <ele>805</ele>
        <time>2022-09-10T07:11:41Z</time>
      </trkpt>
      <trkpt lat="43.53323" lon="5.57436">
        <ele>804</ele>
        <time>2022-09-10T07:11:45Z</time>
      </trkpt>
      <trkpt lat="43.53328" lon="5.57435">
        <ele>803</ele>
        <time>2022-09-10T07:12:17Z</time>
      </trkpt>
      <trkpt lat="43.53344" lon="5.57438">
        <ele>800</ele>
        <time>2022-09-10T07:12:31Z</time>
      </trkpt>
      <trkpt lat="43.5335" lon="5.57447">
        <ele>800</ele>
        <time>2022-09-10T07:12:38Z</time>
      </trkpt>
      <trkpt lat="43.53352" lon="5.57453">
        <ele>799</ele>
        <time>2022-09-10T07:12:43Z</time>
      </trkpt>
      <trkpt lat="43.53356" lon="5.57457">
        <ele>799</ele>
        <time>2022-09-10T07:12:47Z</time>
      </trkpt>
      <trkpt lat="43.53362" lon="5.57462">
        <ele>795</ele>
        <time>2022-09-10T07:12:59Z</time>
      </trkpt>
      <trkpt lat="43.53359" lon="5.57448">
        <ele>793</ele>
        <time>2022-09-10T07:13:11Z</time>
      </trkpt>
      <trkpt lat="43.53361" lon="5.57433">
        <ele>789</ele>
        <time>2022-09-10T07:13:28Z</time>
      </trkpt>
      <trkpt lat="43.53366" lon="5.57432">
        <ele>788</ele>
        <time>2022-09-10T07:13:36Z</time>
      </trkpt>
      <trkpt lat="43.53369" lon="5.57427">
        <ele>786</ele>
        <time>2022-09-10T07:13:41Z</time>
      </trkpt>
      <trkpt lat="43.53373" lon="5.57414">
        <ele>783</ele>
        <time>2022-09-10T07:13:56Z</time>
      </trkpt>
      <trkpt lat="43.5338" lon="5.5741">
        <ele>780</ele>
        <time>2022-09-10T07:14:06Z</time>
      </trkpt>
      <trkpt lat="43.53382" lon="5.57393">
        <ele>776</ele>
        <time>2022-09-10T07:14:22Z</time>
      </trkpt>
      <trkpt lat="43.53392" lon="5.57387">
        <ele>774</ele>
        <time>2022-09-10T07:14:34Z</time>
      </trkpt>
      <trkpt lat="43.53391" lon="5.57379">
        <ele>772</ele>
        <time>2022-09-10T07:14:40Z</time>
      </trkpt>
      <trkpt lat="43.53395" lon="5.5738">
        <ele>771</ele>
        <time>2022-09-10T07:14:50Z</time>
      </trkpt>
      <trkpt lat="43.53408" lon="5.57364">
        <ele>764</ele>
        <time>2022-09-10T07:15:11Z</time>
      </trkpt>
      <trkpt lat="43.53412" lon="5.57363">
        <ele>764</ele>
        <time>2022-09-10T07:15:15Z</time>
      </trkpt>
      <trkpt lat="43.53421" lon="5.57362">
        <ele>760</ele>
        <time>2022-09-10T07:15:28Z</time>
      </trkpt>
      <trkpt lat="43.53433" lon="5.57365">
        <ele>759</ele>
        <time>2022-09-10T07:15:37Z</time>
      </trkpt>
      <trkpt lat="43.53438" lon="5.57364">
        <ele>757</ele>
        <time>2022-09-10T07:15:42Z</time>
      </trkpt>
      <trkpt lat="43.53446" lon="5.57358">
        <ele>756</ele>
        <time>2022-09-10T07:15:50Z</time>
      </trkpt>
      <trkpt lat="43.53451" lon="5.57355">
        <ele>755</ele>
        <time>2022-09-10T07:15:54Z</time>
      </trkpt>
      <trkpt lat="43.53456" lon="5.57353">
        <ele>754</ele>
        <time>2022-09-10T07:16:00Z</time>
      </trkpt>
      <trkpt lat="43.53467" lon="5.57338">
        <ele>750</ele>
        <time>2022-09-10T07:16:18Z</time>
      </trkpt>
      <trkpt lat="43.53476" lon="5.5733">
        <ele>747</ele>
        <time>2022-09-10T07:16:28Z</time>
      </trkpt>
      <trkpt lat="43.53476" lon="5.57325">
        <ele>746</ele>
        <time>2022-09-10T07:16:32Z</time>
      </trkpt>
      <trkpt lat="43.53481" lon="5.57323">
        <ele>745</ele>
        <time>2022-09-10T07:16:40Z</time>
      </trkpt>
      <trkpt lat="43.53485" lon="5.5732">
        <ele>744</ele>
        <time>2022-09-10T07:16:43Z</time>
      </trkpt>
      <trkpt lat="43.53489" lon="5.57316">
        <ele>743</ele>
        <time>2022-09-10T07:16:47Z</time>
      </trkpt>
      <trkpt lat="43.53493" lon="5.57318">
        <ele>743</ele>
        <time>2022-09-10T07:16:51Z</time>
      </trkpt>
      <trkpt lat="43.53497" lon="5.57322">
        <ele>742</ele>
        <time>2022-09-10T07:16:55Z</time>
      </trkpt>
      <trkpt lat="43.53502" lon="5.57321">
        <ele>742</ele>
        <time>2022-09-10T07:16:58Z</time>
      </trkpt>
      <trkpt lat="43.53504" lon="5.57314">
        <ele>740</ele>
        <time>2022-09-10T07:17:01Z</time>
      </trkpt>
      <trkpt lat="43.53509" lon="5.57309">
        <ele>739</ele>
        <time>2022-09-10T07:17:08Z</time>
      </trkpt>
      <trkpt lat="43.53511" lon="5.573">
        <ele>737</ele>
        <time>2022-09-10T07:17:17Z</time>
      </trkpt>
      <trkpt lat="43.53521" lon="5.57279">
        <ele>733</ele>
        <time>2022-09-10T07:17:39Z</time>
      </trkpt>
      <trkpt lat="43.53531" lon="5.57269">
        <ele>730</ele>
        <time>2022-09-10T07:17:58Z</time>
      </trkpt>
      <trkpt lat="43.53534" lon="5.5726">
        <ele>728</ele>
        <time>2022-09-10T07:18:05Z</time>
      </trkpt>
      <trkpt lat="43.53538" lon="5.57255">
        <ele>728</ele>
        <time>2022-09-10T07:18:10Z</time>
      </trkpt>
      <trkpt lat="43.53543" lon="5.57243">
        <ele>727</ele>
        <time>2022-09-10T07:18:18Z</time>
      </trkpt>
      <trkpt lat="43.53546" lon="5.57238">
        <ele>727</ele>
        <time>2022-09-10T07:18:22Z</time>
      </trkpt>
      <trkpt lat="43.53551" lon="5.57237">
        <ele>726</ele>
        <time>2022-09-10T07:18:29Z</time>
      </trkpt>
      <trkpt lat="43.53561" lon="5.57231">
        <ele>724</ele>
        <time>2022-09-10T07:18:37Z</time>
      </trkpt>
      <trkpt lat="43.53566" lon="5.57225">
        <ele>723</ele>
        <time>2022-09-10T07:18:45Z</time>
      </trkpt>
      <trkpt lat="43.53566" lon="5.57217">
        <ele>722</ele>
        <time>2022-09-10T07:18:55Z</time>
      </trkpt>
      <trkpt lat="43.53571" lon="5.57215">
        <ele>722</ele>
        <time>2022-09-10T07:19:20Z</time>
      </trkpt>
      <trkpt lat="43.53574" lon="5.57211">
        <ele>721</ele>
        <time>2022-09-10T07:19:23Z</time>
      </trkpt>
      <trkpt lat="43.53576" lon="5.57204">
        <ele>721</ele>
        <time>2022-09-10T07:19:27Z</time>
      </trkpt>
      <trkpt lat="43.53586" lon="5.572">
        <ele>719</ele>
        <time>2022-09-10T07:19:34Z</time>
      </trkpt>
      <trkpt lat="43.536" lon="5.57208">
        <ele>714</ele>
        <time>2022-09-10T07:19:52Z</time>
      </trkpt>
      <trkpt lat="43.53605" lon="5.57204">
        <ele>712</ele>
        <time>2022-09-10T07:19:59Z</time>
      </trkpt>
      <trkpt lat="43.53609" lon="5.57201">
        <ele>712</ele>
        <time>2022-09-10T07:20:03Z</time>
      </trkpt>
      <trkpt lat="43.53616" lon="5.57184">
        <ele>708</ele>
        <time>2022-09-10T07:20:17Z</time>
      </trkpt>
      <trkpt lat="43.53621" lon="5.57181">
        <ele>706</ele>
        <time>2022-09-10T07:20:27Z</time>
      </trkpt>
      <trkpt lat="43.53629" lon="5.57175">
        <ele>704</ele>
        <time>2022-09-10T07:20:36Z</time>
      </trkpt>
      <trkpt lat="43.53629" lon="5.57169">
        <ele>702</ele>
        <time>2022-09-10T07:20:46Z</time>
      </trkpt>
      <trkpt lat="43.53632" lon="5.57161">
        <ele>699</ele>
        <time>2022-09-10T07:20:56Z</time>
      </trkpt>
      <trkpt lat="43.5364" lon="5.57161">
        <ele>697</ele>
        <time>2022-09-10T07:21:07Z</time>
      </trkpt>
      <trkpt lat="43.53647" lon="5.57169">
        <ele>693</ele>
        <time>2022-09-10T07:21:22Z</time>
      </trkpt>
      <trkpt lat="43.53655" lon="5.57175">
        <ele>691</ele>
        <time>2022-09-10T07:21:31Z</time>
      </trkpt>
      <trkpt lat="43.53658" lon="5.57168">
        <ele>689</ele>
        <time>2022-09-10T07:21:38Z</time>
      </trkpt>
      <trkpt lat="43.53658" lon="5.5716">
        <ele>687</ele>
        <time>2022-09-10T07:21:44Z</time>
      </trkpt>
      <trkpt lat="43.53656" lon="5.57139">
        <ele>687</ele>
        <time>2022-09-10T07:21:53Z</time>
      </trkpt>
      <trkpt lat="43.53659" lon="5.57133">
        <ele>686</ele>
        <time>2022-09-10T07:21:57Z</time>
      </trkpt>
      <trkpt lat="43.5366" lon="5.57127">
        <ele>685</ele>
        <time>2022-09-10T07:22:01Z</time>
      </trkpt>
      <trkpt lat="43.53658" lon="5.57121">
        <ele>685</ele>
        <time>2022-09-10T07:22:06Z</time>
      </trkpt>
      <trkpt lat="43.53658" lon="5.57114">
        <ele>685</ele>
        <time>2022-09-10T07:22:10Z</time>
      </trkpt>
      <trkpt lat="43.53658" lon="5.57107">
        <ele>684</ele>
        <time>2022-09-10T07:22:15Z</time>
      </trkpt>
      <trkpt lat="43.53667" lon="5.57081">
        <ele>679</ele>
        <time>2022-09-10T07:22:39Z</time>
      </trkpt>
      <trkpt lat="43.53665" lon="5.57075">
        <ele>678</ele>
        <time>2022-09-10T07:22:43Z</time>
      </trkpt>
      <trkpt lat="43.53659" lon="5.57071">
        <ele>677</ele>
        <time>2022-09-10T07:22:53Z</time>
      </trkpt>
      <trkpt lat="43.53654" lon="5.57074">
        <ele>675</ele>
        <time>2022-09-10T07:23:00Z</time>
      </trkpt>
      <trkpt lat="43.53648" lon="5.57084">
        <ele>673</ele>
        <time>2022-09-10T07:23:08Z</time>
      </trkpt>
      <trkpt lat="43.53639" lon="5.57091">
        <ele>673</ele>
        <time>2022-09-10T07:23:20Z</time>
      </trkpt>
      <trkpt lat="43.53633" lon="5.57089">
        <ele>672</ele>
        <time>2022-09-10T07:23:26Z</time>
      </trkpt>
      <trkpt lat="43.53629" lon="5.57095">
        <ele>669</ele>
        <time>2022-09-10T07:23:35Z</time>
      </trkpt>
      <trkpt lat="43.53628" lon="5.5709">
        <ele>668</ele>
        <time>2022-09-10T07:23:38Z</time>
      </trkpt>
      <trkpt lat="43.53621" lon="5.57088">
        <ele>665</ele>
        <time>2022-09-10T07:23:51Z</time>
      </trkpt>
      <trkpt lat="43.53614" lon="5.57079">
        <ele>661</ele>
        <time>2022-09-10T07:24:06Z</time>
      </trkpt>
      <trkpt lat="43.53608" lon="5.57078">
        <ele>658</ele>
        <time>2022-09-10T07:24:16Z</time>
      </trkpt>
      <trkpt lat="43.536" lon="5.57078">
        <ele>656</ele>
        <time>2022-09-10T07:24:27Z</time>
      </trkpt>
      <trkpt lat="43.53588" lon="5.57082">
        <ele>651</ele>
        <time>2022-09-10T07:24:42Z</time>
      </trkpt>
      <trkpt lat="43.53579" lon="5.57073">
        <ele>646</ele>
        <time>2022-09-10T07:24:56Z</time>
      </trkpt>
      <trkpt lat="43.53574" lon="5.57073">
        <ele>644</ele>
        <time>2022-09-10T07:25:04Z</time>
      </trkpt>
      <trkpt lat="43.53566" lon="5.5707">
        <ele>641</ele>
        <time>2022-09-10T07:25:14Z</time>
      </trkpt>
      <trkpt lat="43.53562" lon="5.57074">
        <ele>640</ele>
        <time>2022-09-10T07:25:18Z</time>
      </trkpt>
      <trkpt lat="43.53555" lon="5.57073">
        <ele>637</ele>
        <time>2022-09-10T07:25:28Z</time>
      </trkpt>
      <trkpt lat="43.53548" lon="5.57072">
        <ele>634</ele>
        <time>2022-09-10T07:25:38Z</time>
      </trkpt>
      <trkpt lat="43.53544" lon="5.57072">
        <ele>632</ele>
        <time>2022-09-10T07:25:43Z</time>
      </trkpt>
      <trkpt lat="43.53541" lon="5.57066">
        <ele>628</ele>
        <time>2022-09-10T07:25:55Z</time>
      </trkpt>
      <trkpt lat="43.53539" lon="5.57057">
        <ele>625</ele>
        <time>2022-09-10T07:26:05Z</time>
      </trkpt>
      <trkpt lat="43.53533" lon="5.57054">
        <ele>621</ele>
        <time>2022-09-10T07:26:15Z</time>
      </trkpt>
      <trkpt lat="43.53528" lon="5.57057">
        <ele>619</ele>
        <time>2022-09-10T07:26:21Z</time>
      </trkpt>
      <trkpt lat="43.53515" lon="5.57056">
        <ele>614</ele>
        <time>2022-09-10T07:26:37Z</time>
      </trkpt>
      <trkpt lat="43.53508" lon="5.5706">
        <ele>611</ele>
        <time>2022-09-10T07:26:47Z</time>
      </trkpt>
      <trkpt lat="43.53497" lon="5.57056">
        <ele>606</ele>
        <time>2022-09-10T07:27:02Z</time>
      </trkpt>
      <trkpt lat="43.53494" lon="5.5705">
        <ele>603</ele>
        <time>2022-09-10T07:27:09Z</time>
      </trkpt>
      <trkpt lat="43.5349" lon="5.57041">
        <ele>600</ele>
        <time>2022-09-10T07:27:20Z</time>
      </trkpt>
      <trkpt lat="43.53484" lon="5.57044">
        <ele>598</ele>
        <time>2022-09-10T07:27:26Z</time>
      </trkpt>
      <trkpt lat="43.5348" lon="5.5705">
        <ele>597</ele>
        <time>2022-09-10T07:27:31Z</time>
      </trkpt>
      <trkpt lat="43.53472" lon="5.57051">
        <ele>596</ele>
        <time>2022-09-10T07:27:39Z</time>
      </trkpt>
      <trkpt lat="43.53467" lon="5.5705">
        <ele>595</ele>
        <time>2022-09-10T07:27:44Z</time>
      </trkpt>
      <trkpt lat="43.53463" lon="5.57048">
        <ele>594</ele>
        <time>2022-09-10T07:27:48Z</time>
      </trkpt>
      <trkpt lat="43.53445" lon="5.57043">
        <ele>588</ele>
        <time>2022-09-10T07:28:10Z</time>
      </trkpt>
      <trkpt lat="43.53441" lon="5.57039">
        <ele>587</ele>
        <time>2022-09-10T07:28:15Z</time>
      </trkpt>
      <trkpt lat="43.53437" lon="5.5704">
        <ele>586</ele>
        <time>2022-09-10T07:28:20Z</time>
      </trkpt>
      <trkpt lat="43.53431" lon="5.57041">
        <ele>585</ele>
        <time>2022-09-10T07:28:30Z</time>
      </trkpt>
      <trkpt lat="43.53428" lon="5.57035">
        <ele>583</ele>
        <time>2022-09-10T07:28:35Z</time>
      </trkpt>
      <trkpt lat="43.53426" lon="5.57029">
        <ele>582</ele>
        <time>2022-09-10T07:28:40Z</time>
      </trkpt>
      <trkpt lat="43.53417" lon="5.57025">
        <ele>579</ele>
        <time>2022-09-10T07:28:50Z</time>
      </trkpt>
      <trkpt lat="43.53414" lon="5.57021">
        <ele>579</ele>
        <time>2022-09-10T07:28:54Z</time>
      </trkpt>
      <trkpt lat="43.53407" lon="5.57023">
        <ele>577</ele>
        <time>2022-09-10T07:29:02Z</time>
      </trkpt>
      <trkpt lat="43.53403" lon="5.57018">
        <ele>576</ele>
        <time>2022-09-10T07:29:07Z</time>
      </trkpt>
      <trkpt lat="43.53398" lon="5.57019">
        <ele>573</ele>
        <time>2022-09-10T07:29:13Z</time>
      </trkpt>
      <trkpt lat="43.53394" lon="5.57023">
        <ele>572</ele>
        <time>2022-09-10T07:29:19Z</time>
      </trkpt>
      <trkpt lat="43.53388" lon="5.57024">
        <ele>570</ele>
        <time>2022-09-10T07:29:24Z</time>
      </trkpt>
      <trkpt lat="43.53372" lon="5.57017">
        <ele>567</ele>
        <time>2022-09-10T07:29:36Z</time>
      </trkpt>
      <trkpt lat="43.53367" lon="5.57019">
        <ele>566</ele>
        <time>2022-09-10T07:29:40Z</time>
      </trkpt>
      <trkpt lat="43.53362" lon="5.57015">
        <ele>566</ele>
        <time>2022-09-10T07:29:45Z</time>
      </trkpt>
      <trkpt lat="43.53354" lon="5.56998">
        <ele>565</ele>
        <time>2022-09-10T07:29:57Z</time>
      </trkpt>
      <trkpt lat="43.5335" lon="5.56993">
        <ele>565</ele>
        <time>2022-09-10T07:30:01Z</time>
      </trkpt>
      <trkpt lat="43.53345" lon="5.56996">
        <ele>564</ele>
        <time>2022-09-10T07:30:05Z</time>
      </trkpt>
      <trkpt lat="43.53333" lon="5.56989">
        <ele>562</ele>
        <time>2022-09-10T07:30:16Z</time>
      </trkpt>
      <trkpt lat="43.53325" lon="5.56979">
        <ele>561</ele>
        <time>2022-09-10T07:30:24Z</time>
      </trkpt>
      <trkpt lat="43.53323" lon="5.56973">
        <ele>561</ele>
        <time>2022-09-10T07:30:28Z</time>
      </trkpt>
      <trkpt lat="43.5332" lon="5.56967">
        <ele>561</ele>
        <time>2022-09-10T07:30:32Z</time>
      </trkpt>
      <trkpt lat="43.53315" lon="5.56965">
        <ele>561</ele>
        <time>2022-09-10T07:30:36Z</time>
      </trkpt>
      <trkpt lat="43.53307" lon="5.56969">
        <ele>558</ele>
        <time>2022-09-10T07:30:47Z</time>
      </trkpt>
      <trkpt lat="43.53305" lon="5.56964">
        <ele>557</ele>
        <time>2022-09-10T07:30:51Z</time>
      </trkpt>
      <trkpt lat="43.53296" lon="5.56958">
        <ele>556</ele>
        <time>2022-09-10T07:31:00Z</time>
      </trkpt>
      <trkpt lat="43.53284" lon="5.56944">
        <ele>551</ele>
        <time>2022-09-10T07:31:17Z</time>
      </trkpt>
      <trkpt lat="43.5328" lon="5.56942">
        <ele>550</ele>
        <time>2022-09-10T07:31:21Z</time>
      </trkpt>
      <trkpt lat="43.53276" lon="5.56941">
        <ele>549</ele>
        <time>2022-09-10T07:31:25Z</time>
      </trkpt>
      <trkpt lat="43.5327" lon="5.56934">
        <ele>547</ele>
        <time>2022-09-10T07:31:33Z</time>
      </trkpt>
      <trkpt lat="43.53264" lon="5.56934">
        <ele>546</ele>
        <time>2022-09-10T07:31:44Z</time>
      </trkpt>
      <trkpt lat="43.53257" lon="5.56926">
        <ele>545</ele>
        <time>2022-09-10T07:31:50Z</time>
      </trkpt>
      <trkpt lat="43.53242" lon="5.56908">
        <ele>544</ele>
        <time>2022-09-10T07:32:04Z</time>
      </trkpt>
      <trkpt lat="43.53242" lon="5.569">
        <ele>544</ele>
        <time>2022-09-10T07:32:07Z</time>
      </trkpt>
      <trkpt lat="43.5324" lon="5.56895">
        <ele>544</ele>
        <time>2022-09-10T07:32:11Z</time>
      </trkpt>
      <trkpt lat="43.53231" lon="5.56878">
        <ele>543</ele>
        <time>2022-09-10T07:32:23Z</time>
      </trkpt>
      <trkpt lat="43.53226" lon="5.56876">
        <ele>543</ele>
        <time>2022-09-10T07:32:27Z</time>
      </trkpt>
      <trkpt lat="43.53221" lon="5.56869">
        <ele>544</ele>
        <time>2022-09-10T07:32:35Z</time>
      </trkpt>
      <trkpt lat="43.5322" lon="5.56863">
        <ele>543</ele>
        <time>2022-09-10T07:32:39Z</time>
      </trkpt>
      <trkpt lat="43.5322" lon="5.56856">
        <ele>543</ele>
        <time>2022-09-10T07:32:44Z</time>
      </trkpt>
      <trkpt lat="43.53219" lon="5.5685">
        <ele>542</ele>
        <time>2022-09-10T07:32:48Z</time>
      </trkpt>
      <trkpt lat="43.53215" lon="5.56844">
        <ele>541</ele>
        <time>2022-09-10T07:32:53Z</time>
      </trkpt>
      <trkpt lat="43.53215" lon="5.56838">
        <ele>540</ele>
        <time>2022-09-10T07:32:58Z</time>
      </trkpt>
      <trkpt lat="43.53216" lon="5.56832">
        <ele>540</ele>
        <time>2022-09-10T07:33:02Z</time>
      </trkpt>
      <trkpt lat="43.53213" lon="5.56825">
        <ele>539</ele>
        <time>2022-09-10T07:33:07Z</time>
      </trkpt>
      <trkpt lat="43.53209" lon="5.56822">
        <ele>538</ele>
        <time>2022-09-10T07:33:11Z</time>
      </trkpt>
      <trkpt lat="43.53204" lon="5.56807">
        <ele>536</ele>
        <time>2022-09-10T07:33:23Z</time>
      </trkpt>
      <trkpt lat="43.53194" lon="5.56797">
        <ele>534</ele>
        <time>2022-09-10T07:33:34Z</time>
      </trkpt>
      <trkpt lat="43.53192" lon="5.56791">
        <ele>533</ele>
        <time>2022-09-10T07:33:38Z</time>
      </trkpt>
      <trkpt lat="43.53186" lon="5.56785">
        <ele>531</ele>
        <time>2022-09-10T07:33:48Z</time>
      </trkpt>
      <trkpt lat="43.53181" lon="5.56784">
        <ele>530</ele>
        <time>2022-09-10T07:33:52Z</time>
      </trkpt>
      <trkpt lat="43.53154" lon="5.56771">
        <ele>524</ele>
        <time>2022-09-10T07:34:20Z</time>
      </trkpt>
      <trkpt lat="43.53152" lon="5.56765">
        <ele>524</ele>
        <time>2022-09-10T07:34:25Z</time>
      </trkpt>
      <trkpt lat="43.53148" lon="5.56757">
        <ele>521</ele>
        <time>2022-09-10T07:34:34Z</time>
      </trkpt>
      <trkpt lat="43.53148" lon="5.56749">
        <ele>521</ele>
        <time>2022-09-10T07:34:39Z</time>
      </trkpt>
      <trkpt lat="43.53153" lon="5.56729">
        <ele>517</ele>
        <time>2022-09-10T07:34:54Z</time>
      </trkpt>
      <trkpt lat="43.53153" lon="5.56722">
        <ele>516</ele>
        <time>2022-09-10T07:35:03Z</time>
      </trkpt>
      <trkpt lat="43.5315" lon="5.56715">
        <ele>512</ele>
        <time>2022-09-10T07:35:17Z</time>
      </trkpt>
      <trkpt lat="43.53149" lon="5.56709">
        <ele>511</ele>
        <time>2022-09-10T07:35:24Z</time>
      </trkpt>
      <trkpt lat="43.5314" lon="5.56706">
        <ele>509</ele>
        <time>2022-09-10T07:35:34Z</time>
      </trkpt>
      <trkpt lat="43.53131" lon="5.56719">
        <ele>507</ele>
        <time>2022-09-10T07:35:48Z</time>
      </trkpt>
      <trkpt lat="43.53125" lon="5.56717">
        <ele>504</ele>
        <time>2022-09-10T07:36:01Z</time>
      </trkpt>
      <trkpt lat="43.53119" lon="5.56718">
        <ele>502</ele>
        <time>2022-09-10T07:36:09Z</time>
      </trkpt>
      <trkpt lat="43.5312" lon="5.56711">
        <ele>501</ele>
        <time>2022-09-10T07:36:15Z</time>
      </trkpt>
      <trkpt lat="43.53114" lon="5.56702">
        <ele>499</ele>
        <time>2022-09-10T07:36:26Z</time>
      </trkpt>
      <trkpt lat="43.5311" lon="5.56699">
        <ele>497</ele>
        <time>2022-09-10T07:36:33Z</time>
      </trkpt>
      <trkpt lat="43.53095" lon="5.56695">
        <ele>493</ele>
        <time>2022-09-10T07:36:52Z</time>
      </trkpt>
      <trkpt lat="43.5309" lon="5.56694">
        <ele>491</ele>
        <time>2022-09-10T07:36:59Z</time>
      </trkpt>
      <trkpt lat="43.53082" lon="5.56687">
        <ele>490</ele>
        <time>2022-09-10T07:37:07Z</time>
      </trkpt>
      <trkpt lat="43.53077" lon="5.56688">
        <ele>489</ele>
        <time>2022-09-10T07:37:11Z</time>
      </trkpt>
      <trkpt lat="43.53071" lon="5.56692">
        <ele>487</ele>
        <time>2022-09-10T07:37:17Z</time>
      </trkpt>
      <trkpt lat="43.53071" lon="5.56698">
        <ele>487</ele>
        <time>2022-09-10T07:37:21Z</time>
      </trkpt>
      <trkpt lat="43.53073" lon="5.56704">
        <ele>486</ele>
        <time>2022-09-10T07:37:24Z</time>
      </trkpt>
      <trkpt lat="43.53071" lon="5.56716">
        <ele>484</ele>
        <time>2022-09-10T07:37:33Z</time>
      </trkpt>
      <trkpt lat="43.53061" lon="5.56715">
        <ele>483</ele>
        <time>2022-09-10T07:37:41Z</time>
      </trkpt>
      <trkpt lat="43.53057" lon="5.56717">
        <ele>483</ele>
        <time>2022-09-10T07:37:45Z</time>
      </trkpt>
      <trkpt lat="43.53049" lon="5.56724">
        <ele>482</ele>
        <time>2022-09-10T07:37:53Z</time>
      </trkpt>
      <trkpt lat="43.53045" lon="5.56729">
        <ele>481</ele>
        <time>2022-09-10T07:37:57Z</time>
      </trkpt>
      <trkpt lat="43.53043" lon="5.56735">
        <ele>481</ele>
        <time>2022-09-10T07:38:02Z</time>
      </trkpt>
      <trkpt lat="43.53042" lon="5.56746">
        <ele>479</ele>
        <time>2022-09-10T07:38:11Z</time>
      </trkpt>
      <trkpt lat="43.53047" lon="5.56766">
        <ele>475</ele>
        <time>2022-09-10T07:38:27Z</time>
      </trkpt>
      <trkpt lat="43.53052" lon="5.56776">
        <ele>474</ele>
        <time>2022-09-10T07:38:35Z</time>
      </trkpt>
      <trkpt lat="43.53053" lon="5.56784">
        <ele>472</ele>
        <time>2022-09-10T07:38:47Z</time>
      </trkpt>
      <trkpt lat="43.53057" lon="5.56788">
        <ele>471</ele>
        <time>2022-09-10T07:38:51Z</time>
      </trkpt>
      <trkpt lat="43.53061" lon="5.56796">
        <ele>469</ele>
        <time>2022-09-10T07:38:57Z</time>
      </trkpt>
      <trkpt lat="43.53056" lon="5.56799">
        <ele>468</ele>
        <time>2022-09-10T07:39:04Z</time>
      </trkpt>
      <trkpt lat="43.53051" lon="5.568">
        <ele>467</ele>
        <time>2022-09-10T07:39:08Z</time>
      </trkpt>
      <trkpt lat="43.53043" lon="5.56799">
        <ele>465</ele>
        <time>2022-09-10T07:39:16Z</time>
      </trkpt>
      <trkpt lat="43.53039" lon="5.56803">
        <ele>464</ele>
        <time>2022-09-10T07:39:20Z</time>
      </trkpt>
      <trkpt lat="43.53038" lon="5.56813">
        <ele>462</ele>
        <time>2022-09-10T07:39:30Z</time>
      </trkpt>
      <trkpt lat="43.53034" lon="5.56817">
        <ele>461</ele>
        <time>2022-09-10T07:39:34Z</time>
      </trkpt>
      <trkpt lat="43.53033" lon="5.56829">
        <ele>460</ele>
        <time>2022-09-10T07:39:41Z</time>
      </trkpt>
      <trkpt lat="43.53032" lon="5.56835">
        <ele>460</ele>
        <time>2022-09-10T07:39:44Z</time>
      </trkpt>
      <trkpt lat="43.53029" lon="5.56842">
        <ele>459</ele>
        <time>2022-09-10T07:39:48Z</time>
      </trkpt>
      <trkpt lat="43.53027" lon="5.56849">
        <ele>458</ele>
        <time>2022-09-10T07:39:52Z</time>
      </trkpt>
      <trkpt lat="43.53023" lon="5.56861">
        <ele>457</ele>
        <time>2022-09-10T07:40:01Z</time>
      </trkpt>
      <trkpt lat="43.52999" lon="5.56869">
        <ele>452</ele>
        <time>2022-09-10T07:40:24Z</time>
      </trkpt>
      <trkpt lat="43.52995" lon="5.56873">
        <ele>451</ele>
        <time>2022-09-10T07:40:28Z</time>
      </trkpt>
      <trkpt lat="43.5299" lon="5.56875">
        <ele>450</ele>
        <time>2022-09-10T07:40:34Z</time>
      </trkpt>
      <trkpt lat="43.52985" lon="5.56879">
        <ele>448</ele>
        <time>2022-09-10T07:40:39Z</time>
      </trkpt>
      <trkpt lat="43.52983" lon="5.56885">
        <ele>448</ele>
        <time>2022-09-10T07:40:42Z</time>
      </trkpt>
      <trkpt lat="43.52979" lon="5.56889">
        <ele>446</ele>
        <time>2022-09-10T07:40:47Z</time>
      </trkpt>
      <trkpt lat="43.52975" lon="5.56901">
        <ele>445</ele>
        <time>2022-09-10T07:40:54Z</time>
      </trkpt>
      <trkpt lat="43.52975" lon="5.56908">
        <ele>445</ele>
        <time>2022-09-10T07:40:58Z</time>
      </trkpt>
      <trkpt lat="43.5297" lon="5.56921">
        <ele>445</ele>
        <time>2022-09-10T07:41:07Z</time>
      </trkpt>
      <trkpt lat="43.52965" lon="5.56924">
        <ele>445</ele>
        <time>2022-09-10T07:41:11Z</time>
      </trkpt>
      <trkpt lat="43.52961" lon="5.56924">
        <ele>444</ele>
        <time>2022-09-10T07:41:14Z</time>
      </trkpt>
      <trkpt lat="43.52957" lon="5.56921">
        <ele>444</ele>
        <time>2022-09-10T07:41:17Z</time>
      </trkpt>
      <trkpt lat="43.52953" lon="5.56925">
        <ele>443</ele>
        <time>2022-09-10T07:41:22Z</time>
      </trkpt>
      <trkpt lat="43.52942" lon="5.56924">
        <ele>441</ele>
        <time>2022-09-10T07:41:31Z</time>
      </trkpt>
      <trkpt lat="43.52928" lon="5.56917">
        <ele>439</ele>
        <time>2022-09-10T07:41:43Z</time>
      </trkpt>
      <trkpt lat="43.52925" lon="5.56924">
        <ele>438</ele>
        <time>2022-09-10T07:41:49Z</time>
      </trkpt>
      <trkpt lat="43.52922" lon="5.56929">
        <ele>438</ele>
        <time>2022-09-10T07:41:52Z</time>
      </trkpt>
      <trkpt lat="43.52917" lon="5.56932">
        <ele>439</ele>
        <time>2022-09-10T07:41:56Z</time>
      </trkpt>
      <trkpt lat="43.52912" lon="5.56934">
        <ele>439</ele>
        <time>2022-09-10T07:42:01Z</time>
      </trkpt>
      <trkpt lat="43.52893" lon="5.56944">
        <ele>439</ele>
        <time>2022-09-10T07:42:17Z</time>
      </trkpt>
      <trkpt lat="43.52897" lon="5.56943">
        <ele>439</ele>
        <time>2022-09-10T07:45:36Z</time>
      </trkpt>
      <trkpt lat="43.52906" lon="5.56938">
        <ele>439</ele>
        <time>2022-09-10T07:45:44Z</time>
      </trkpt>
      <trkpt lat="43.52911" lon="5.56937">
        <ele>439</ele>
        <time>2022-09-10T07:45:48Z</time>
      </trkpt>
      <trkpt lat="43.52915" lon="5.56932">
        <ele>439</ele>
        <time>2022-09-10T07:45:52Z</time>
      </trkpt>
      <trkpt lat="43.52925" lon="5.56924">
        <ele>439</ele>
        <time>2022-09-10T07:46:05Z</time>
      </trkpt>
      <trkpt lat="43.52926" lon="5.56918">
        <ele>438</ele>
        <time>2022-09-10T07:46:09Z</time>
      </trkpt>
      <trkpt lat="43.5292" lon="5.56913">
        <ele>437</ele>
        <time>2022-09-10T07:46:23Z</time>
      </trkpt>
      <trkpt lat="43.52915" lon="5.56914">
        <ele>437</ele>
        <time>2022-09-10T07:46:27Z</time>
      </trkpt>
      <trkpt lat="43.52911" lon="5.56914">
        <ele>437</ele>
        <time>2022-09-10T07:46:30Z</time>
      </trkpt>
      <trkpt lat="43.52897" lon="5.56913">
        <ele>435</ele>
        <time>2022-09-10T07:46:41Z</time>
      </trkpt>
      <trkpt lat="43.52888" lon="5.56908">
        <ele>434</ele>
        <time>2022-09-10T07:46:49Z</time>
      </trkpt>
      <trkpt lat="43.52875" lon="5.56894">
        <ele>431</ele>
        <time>2022-09-10T07:47:02Z</time>
      </trkpt>
      <trkpt lat="43.5285" lon="5.56889">
        <ele>427</ele>
        <time>2022-09-10T07:47:17Z</time>
      </trkpt>
      <trkpt lat="43.52845" lon="5.56891">
        <ele>427</ele>
        <time>2022-09-10T07:47:20Z</time>
      </trkpt>
      <trkpt lat="43.52836" lon="5.56893">
        <ele>426</ele>
        <time>2022-09-10T07:47:27Z</time>
      </trkpt>
      <trkpt lat="43.52813" lon="5.56886">
        <ele>423</ele>
        <time>2022-09-10T07:47:42Z</time>
      </trkpt>
      <trkpt lat="43.52806" lon="5.56884">
        <ele>422</ele>
        <time>2022-09-10T07:47:51Z</time>
      </trkpt>
      <trkpt lat="43.52805" lon="5.56875">
        <ele>420</ele>
        <time>2022-09-10T07:48:02Z</time>
      </trkpt>
      <trkpt lat="43.52797" lon="5.56868">
        <ele>418</ele>
        <time>2022-09-10T07:48:10Z</time>
      </trkpt>
      <trkpt lat="43.52795" lon="5.56862">
        <ele>416</ele>
        <time>2022-09-10T07:48:18Z</time>
      </trkpt>
      <trkpt lat="43.52794" lon="5.56855">
        <ele>416</ele>
        <time>2022-09-10T07:48:21Z</time>
      </trkpt>
      <trkpt lat="43.52789" lon="5.56852">
        <ele>415</ele>
        <time>2022-09-10T07:48:24Z</time>
      </trkpt>
      <trkpt lat="43.52777" lon="5.56854">
        <ele>413</ele>
        <time>2022-09-10T07:48:36Z</time>
      </trkpt>
      <trkpt lat="43.52769" lon="5.56848">
        <ele>412</ele>
        <time>2022-09-10T07:48:43Z</time>
      </trkpt>
      <trkpt lat="43.52765" lon="5.56845">
        <ele>411</ele>
        <time>2022-09-10T07:48:47Z</time>
      </trkpt>
      <trkpt lat="43.52759" lon="5.56842">
        <ele>410</ele>
        <time>2022-09-10T07:48:52Z</time>
      </trkpt>
      <trkpt lat="43.52755" lon="5.56844">
        <ele>409</ele>
        <time>2022-09-10T07:48:56Z</time>
      </trkpt>
      <trkpt lat="43.52752" lon="5.56857">
        <ele>408</ele>
        <time>2022-09-10T07:49:03Z</time>
      </trkpt>
      <trkpt lat="43.52748" lon="5.56868">
        <ele>408</ele>
        <time>2022-09-10T07:49:10Z</time>
      </trkpt>
      <trkpt lat="43.52739" lon="5.56874">
        <ele>407</ele>
        <time>2022-09-10T07:49:16Z</time>
      </trkpt>
      <trkpt lat="43.52715" lon="5.56873">
        <ele>403</ele>
        <time>2022-09-10T07:49:33Z</time>
      </trkpt>
      <trkpt lat="43.52709" lon="5.56871">
        <ele>403</ele>
        <time>2022-09-10T07:49:37Z</time>
      </trkpt>
      <trkpt lat="43.5269" lon="5.56858">
        <ele>403</ele>
        <time>2022-09-10T07:49:49Z</time>
      </trkpt>
      <trkpt lat="43.5268" lon="5.56846">
        <ele>400</ele>
        <time>2022-09-10T07:50:06Z</time>
      </trkpt>
      <trkpt lat="43.52674" lon="5.56845">
        <ele>399</ele>
        <time>2022-09-10T07:50:10Z</time>
      </trkpt>
      <trkpt lat="43.52659" lon="5.56837">
        <ele>398</ele>
        <time>2022-09-10T07:50:19Z</time>
      </trkpt>
      <trkpt lat="43.52654" lon="5.5683">
        <ele>396</ele>
        <time>2022-09-10T07:50:26Z</time>
      </trkpt>
      <trkpt lat="43.52653" lon="5.56824">
        <ele>395</ele>
        <time>2022-09-10T07:50:30Z</time>
      </trkpt>
      <trkpt lat="43.52656" lon="5.56811">
        <ele>393</ele>
        <time>2022-09-10T07:50:39Z</time>
      </trkpt>
      <trkpt lat="43.52663" lon="5.56796">
        <ele>391</ele>
        <time>2022-09-10T07:50:51Z</time>
      </trkpt>
      <trkpt lat="43.52658" lon="5.56776">
        <ele>387</ele>
        <time>2022-09-10T07:51:03Z</time>
      </trkpt>
      <trkpt lat="43.52648" lon="5.56769">
        <ele>385</ele>
        <time>2022-09-10T07:51:09Z</time>
      </trkpt>
      <trkpt lat="43.52647" lon="5.56763">
        <ele>383</ele>
        <time>2022-09-10T07:51:14Z</time>
      </trkpt>
      <trkpt lat="43.52643" lon="5.56758">
        <ele>382</ele>
        <time>2022-09-10T07:51:18Z</time>
      </trkpt>
      <trkpt lat="43.52639" lon="5.56755">
        <ele>381</ele>
        <time>2022-09-10T07:51:22Z</time>
      </trkpt>
      <trkpt lat="43.52633" lon="5.56758">
        <ele>380</ele>
        <time>2022-09-10T07:51:27Z</time>
      </trkpt>
      <trkpt lat="43.52628" lon="5.56761">
        <ele>379</ele>
        <time>2022-09-10T07:51:30Z</time>
      </trkpt>
      <trkpt lat="43.52624" lon="5.56766">
        <ele>378</ele>
        <time>2022-09-10T07:51:34Z</time>
      </trkpt>
      <trkpt lat="43.52619" lon="5.56769">
        <ele>377</ele>
        <time>2022-09-10T07:51:38Z</time>
      </trkpt>
      <trkpt lat="43.52615" lon="5.56778">
        <ele>376</ele>
        <time>2022-09-10T07:51:46Z</time>
      </trkpt>
      <trkpt lat="43.52609" lon="5.56785">
        <ele>373</ele>
        <time>2022-09-10T07:51:55Z</time>
      </trkpt>
      <trkpt lat="43.52604" lon="5.56792">
        <ele>372</ele>
        <time>2022-09-10T07:52:00Z</time>
      </trkpt>
      <trkpt lat="43.52598" lon="5.56787">
        <ele>370</ele>
        <time>2022-09-10T07:52:07Z</time>
      </trkpt>
      <trkpt lat="43.52595" lon="5.56777">
        <ele>368</ele>
        <time>2022-09-10T07:52:14Z</time>
      </trkpt>
      <trkpt lat="43.52598" lon="5.56763">
        <ele>366</ele>
        <time>2022-09-10T07:52:24Z</time>
      </trkpt>
      <trkpt lat="43.526" lon="5.56756">
        <ele>365</ele>
        <time>2022-09-10T07:52:28Z</time>
      </trkpt>
      <trkpt lat="43.526" lon="5.56748">
        <ele>365</ele>
        <time>2022-09-10T07:52:32Z</time>
      </trkpt>
      <trkpt lat="43.52602" lon="5.56742">
        <ele>364</ele>
        <time>2022-09-10T07:52:36Z</time>
      </trkpt>
      <trkpt lat="43.52594" lon="5.56711">
        <ele>361</ele>
        <time>2022-09-10T07:52:53Z</time>
      </trkpt>
      <trkpt lat="43.52594" lon="5.56705">
        <ele>360</ele>
        <time>2022-09-10T07:52:56Z</time>
      </trkpt>
      <trkpt lat="43.52592" lon="5.56699">
        <ele>360</ele>
        <time>2022-09-10T07:53:00Z</time>
      </trkpt>
      <trkpt lat="43.52588" lon="5.56694">
        <ele>358</ele>
        <time>2022-09-10T07:53:04Z</time>
      </trkpt>
      <trkpt lat="43.52585" lon="5.56689">
        <ele>356</ele>
        <time>2022-09-10T07:53:08Z</time>
      </trkpt>
      <trkpt lat="43.52582" lon="5.56685">
        <ele>355</ele>
        <time>2022-09-10T07:53:11Z</time>
      </trkpt>
      <trkpt lat="43.52572" lon="5.56683">
        <ele>354</ele>
        <time>2022-09-10T07:53:19Z</time>
      </trkpt>
      <trkpt lat="43.52557" lon="5.56685">
        <ele>351</ele>
        <time>2022-09-10T07:53:31Z</time>
      </trkpt>
      <trkpt lat="43.52552" lon="5.56687">
        <ele>350</ele>
        <time>2022-09-10T07:53:35Z</time>
      </trkpt>
      <trkpt lat="43.52539" lon="5.56692">
        <ele>348</ele>
        <time>2022-09-10T07:53:55Z</time>
      </trkpt>
      <trkpt lat="43.52533" lon="5.567">
        <ele>346</ele>
        <time>2022-09-10T07:54:04Z</time>
      </trkpt>
      <trkpt lat="43.52534" lon="5.56709">
        <ele>345</ele>
        <time>2022-09-10T07:54:13Z</time>
      </trkpt>
      <trkpt lat="43.52526" lon="5.56706">
        <ele>345</ele>
        <time>2022-09-10T07:54:44Z</time>
      </trkpt>
      <trkpt lat="43.52521" lon="5.5671">
        <ele>343</ele>
        <time>2022-09-10T07:54:49Z</time>
      </trkpt>
      <trkpt lat="43.52502" lon="5.56713">
        <ele>340</ele>
        <time>2022-09-10T07:55:04Z</time>
      </trkpt>
      <trkpt lat="43.52502" lon="5.56721">
        <ele>339</ele>
        <time>2022-09-10T07:55:12Z</time>
      </trkpt>
      <trkpt lat="43.52501" lon="5.56727">
        <ele>340</ele>
        <time>2022-09-10T07:55:15Z</time>
      </trkpt>
      <trkpt lat="43.52498" lon="5.56733">
        <ele>339</ele>
        <time>2022-09-10T07:55:19Z</time>
      </trkpt>
      <trkpt lat="43.52497" lon="5.56741">
        <ele>339</ele>
        <time>2022-09-10T07:55:23Z</time>
      </trkpt>
      <trkpt lat="43.52494" lon="5.56746">
        <ele>338</ele>
        <time>2022-09-10T07:55:26Z</time>
      </trkpt>
      <trkpt lat="43.52492" lon="5.56757">
        <ele>337</ele>
        <time>2022-09-10T07:55:32Z</time>
      </trkpt>
      <trkpt lat="43.52487" lon="5.56768">
        <ele>336</ele>
        <time>2022-09-10T07:55:39Z</time>
      </trkpt>
      <trkpt lat="43.52479" lon="5.56774">
        <ele>334</ele>
        <time>2022-09-10T07:55:46Z</time>
      </trkpt>
      <trkpt lat="43.52459" lon="5.5678">
        <ele>331</ele>
        <time>2022-09-10T07:56:01Z</time>
      </trkpt>
      <trkpt lat="43.5245" lon="5.56778">
        <ele>330</ele>
        <time>2022-09-10T07:56:08Z</time>
      </trkpt>
      <trkpt lat="43.52446" lon="5.56779">
        <ele>330</ele>
        <time>2022-09-10T07:56:12Z</time>
      </trkpt>
      <trkpt lat="43.52442" lon="5.56777">
        <ele>329</ele>
        <time>2022-09-10T07:56:15Z</time>
      </trkpt>
      <trkpt lat="43.5243" lon="5.56773">
        <ele>328</ele>
        <time>2022-09-10T07:56:23Z</time>
      </trkpt>
      <trkpt lat="43.5242" lon="5.56764">
        <ele>326</ele>
        <time>2022-09-10T07:56:31Z</time>
      </trkpt>
      <trkpt lat="43.52418" lon="5.56759">
        <ele>326</ele>
        <time>2022-09-10T07:56:34Z</time>
      </trkpt>
      <trkpt lat="43.52417" lon="5.56753">
        <ele>326</ele>
        <time>2022-09-10T07:56:37Z</time>
      </trkpt>
      <trkpt lat="43.52414" lon="5.56747">
        <ele>325</ele>
        <time>2022-09-10T07:56:40Z</time>
      </trkpt>
      <trkpt lat="43.52402" lon="5.56734">
        <ele>324</ele>
        <time>2022-09-10T07:56:49Z</time>
      </trkpt>
      <trkpt lat="43.52398" lon="5.56722">
        <ele>324</ele>
        <time>2022-09-10T07:56:57Z</time>
      </trkpt>
      <trkpt lat="43.52394" lon="5.56709">
        <ele>323</ele>
        <time>2022-09-10T07:57:05Z</time>
      </trkpt>
      <trkpt lat="43.5239" lon="5.5669">
        <ele>321</ele>
        <time>2022-09-10T07:57:13Z</time>
      </trkpt>
      <trkpt lat="43.5239" lon="5.56682">
        <ele>321</ele>
        <time>2022-09-10T07:57:18Z</time>
      </trkpt>
      <trkpt lat="43.52383" lon="5.56651">
        <ele>318</ele>
        <time>2022-09-10T07:57:34Z</time>
      </trkpt>
      <trkpt lat="43.52369" lon="5.56622">
        <ele>313</ele>
        <time>2022-09-10T07:57:52Z</time>
      </trkpt>
      <trkpt lat="43.52361" lon="5.56589">
        <ele>306</ele>
        <time>2022-09-10T07:58:13Z</time>
      </trkpt>
      <trkpt lat="43.52354" lon="5.56594">
        <ele>305</ele>
        <time>2022-09-10T07:58:28Z</time>
      </trkpt>
      <trkpt lat="43.52343" lon="5.56617">
        <ele>302</ele>
        <time>2022-09-10T07:58:47Z</time>
      </trkpt>
      <trkpt lat="43.52341" lon="5.56631">
        <ele>302</ele>
        <time>2022-09-10T07:58:55Z</time>
      </trkpt>
      <trkpt lat="43.52344" lon="5.56635">
        <ele>302</ele>
        <time>2022-09-10T07:58:59Z</time>
      </trkpt>
      <trkpt lat="43.52342" lon="5.5665">
        <ele>303</ele>
        <time>2022-09-10T07:59:08Z</time>
      </trkpt>
      <trkpt lat="43.52343" lon="5.56657">
        <ele>303</ele>
        <time>2022-09-10T07:59:12Z</time>
      </trkpt>
      <trkpt lat="43.52343" lon="5.56663">
        <ele>304</ele>
        <time>2022-09-10T07:59:17Z</time>
      </trkpt>
      <trkpt lat="43.52344" lon="5.56669">
        <ele>304</ele>
        <time>2022-09-10T07:59:20Z</time>
      </trkpt>
      <trkpt lat="43.5234" lon="5.56675">
        <ele>304</ele>
        <time>2022-09-10T07:59:24Z</time>
      </trkpt>
      <trkpt lat="43.52335" lon="5.56679">
        <ele>304</ele>
        <time>2022-09-10T07:59:29Z</time>
      </trkpt>
      <trkpt lat="43.5233" lon="5.5668">
        <ele>303</ele>
        <time>2022-09-10T07:59:33Z</time>
      </trkpt>
      <trkpt lat="43.52326" lon="5.56683">
        <ele>302</ele>
        <time>2022-09-10T07:59:36Z</time>
      </trkpt>
      <trkpt lat="43.5232" lon="5.56686">
        <ele>300</ele>
        <time>2022-09-10T07:59:48Z</time>
      </trkpt>
      <trkpt lat="43.52311" lon="5.56691">
        <ele>300</ele>
        <time>2022-09-10T07:59:57Z</time>
      </trkpt>
      <trkpt lat="43.52307" lon="5.56697">
        <ele>301</ele>
        <time>2022-09-10T08:00:04Z</time>
      </trkpt>
      <trkpt lat="43.52305" lon="5.56703">
        <ele>301</ele>
        <time>2022-09-10T08:00:07Z</time>
      </trkpt>
      <trkpt lat="43.52315" lon="5.56723">
        <ele>301</ele>
        <time>2022-09-10T08:00:11Z</time>
      </trkpt>
      <trkpt lat="43.52323" lon="5.56732">
        <ele>302</ele>
        <time>2022-09-10T08:00:16Z</time>
      </trkpt>
      <trkpt lat="43.52327" lon="5.56735">
        <ele>303</ele>
        <time>2022-09-10T08:00:24Z</time>
      </trkpt>
      <trkpt lat="43.52326" lon="5.56742">
        <ele>303</ele>
        <time>2022-09-10T08:00:53Z</time>
      </trkpt>
      <trkpt lat="43.52326" lon="5.5675">
        <ele>304</ele>
        <time>2022-09-10T08:00:56Z</time>
      </trkpt>
      <trkpt lat="43.52326" lon="5.56757">
        <ele>304</ele>
        <time>2022-09-10T08:01:00Z</time>
      </trkpt>
      <trkpt lat="43.52329" lon="5.5677">
        <ele>305</ele>
        <time>2022-09-10T08:01:09Z</time>
      </trkpt>
      <trkpt lat="43.52333" lon="5.56783">
        <ele>306</ele>
        <time>2022-09-10T08:01:16Z</time>
      </trkpt>
      <trkpt lat="43.5233" lon="5.56797">
        <ele>307</ele>
        <time>2022-09-10T08:01:26Z</time>
      </trkpt>
      <trkpt lat="43.52335" lon="5.56803">
        <ele>309</ele>
        <time>2022-09-10T08:03:34Z</time>
      </trkpt>
    </trkseg>
  </trk>
  <rte>
    <name><![CDATA[4 avr. 2019 à 23:11:12]]></name>
    <cmt><![CDATA[4 avr. 2019 à 23:11:12]]></cmt>
    <desc><![CDATA[{DC1}Heure de fin	: 
Durée totale	: 0h00:00
Moyenne globale	: -
Pente moyenne	: 0.00 %
Aire incluse	: 7.4932 ha
Détails par segments
distance  | durée    | vit.moy. | vit.max. | déniv. + | déniv -
   km     | hh:mn:ss |   km/h   |   km/h   |    m     |    m
     0.81 | 00:00:00 |      0.0 |      0.0 |        0 |        0{DC2}]]></desc>
      <rtept lat="45.60077" lon="6.18221">
        <ele>1608.6</ele>
      </rtept>
      <rtept lat="45.59468" lon="6.1822">
        <ele>1760.9</ele>
      </rtept>
      <rtept lat="45.59468" lon="6.1822">
        <ele>1760.9</ele>
      </rtept>
    </rte>
  <rte>
    <name><![CDATA[10 févr. 2019 à 15:16:12]]></name>
    <cmt><![CDATA[10 févr. 2019 à 15:16:12]]></cmt>
    <desc><![CDATA[{DC1}Heure de fin	: 00:09:21
Durée totale	: -17690439h43:48
Moyenne globale	: -
Pente moyenne	: 7.00 %
Aire incluse	: 221.0936 ha
Détails par segments
distance  | durée    | vit.moy. | vit.max. | déniv. + | déniv -
   km     | hh:mn:ss |   km/h   |   km/h   |    m     |    m
     7.48 | 00:00:00 |      0.0 |      0.0 |        0 |        0{DC2}]]></desc>
      <rtept lat="45.55203" lon="5.93805">
        <ele>376</ele>
      </rtept>
      <rtept lat="45.55177" lon="5.93873">
        <ele>369</ele>
      </rtept>
      <rtept lat="45.55176" lon="5.93942">
        <ele>367</ele>
      </rtept>
      <rtept lat="45.55105" lon="5.93942">
        <ele>367</ele>
      </rtept>
      <rtept lat="45.54993" lon="5.93908">
        <ele>371</ele>
      </rtept>
      <rtept lat="45.54929" lon="5.94099">
        <ele>370</ele>
      </rtept>
      <rtept lat="45.54908" lon="5.94204">
        <ele>367</ele>
      </rtept>
      <rtept lat="45.54991" lon="5.94287">
        <ele>365</ele>
      </rtept>
      <rtept lat="45.5506" lon="5.94384">
        <ele>361</ele>
      </rtept>
      <rtept lat="45.55147" lon="5.94384">
        <ele>357</ele>
      </rtept>
      <rtept lat="45.55129" lon="5.94607">
        <ele>358</ele>
      </rtept>
      <rtept lat="45.55029" lon="5.94809">
        <ele>355</ele>
      </rtept>
      <rtept lat="45.54884" lon="5.94886">
        <ele>346</ele>
      </rtept>
      <rtept lat="45.5477" lon="5.94931">
        <ele>342</ele>
      </rtept>
      <rtept lat="45.5468" lon="5.95004">
        <ele>339</ele>
      </rtept>
      <rtept lat="45.54596" lon="5.95133">
        <ele>340</ele>
      </rtept>
      <rtept lat="45.54446" lon="5.95195">
        <ele>343</ele>
      </rtept>
      <rtept lat="45.543" lon="5.95262">
        <ele>344</ele>
      </rtept>
      <rtept lat="45.54156" lon="5.95212">
        <ele>337</ele>
      </rtept>
      <rtept lat="45.54041" lon="5.95204">
        <ele>338</ele>
      </rtept>
      <rtept lat="45.53917" lon="5.95141">
        <ele>343</ele>
      </rtept>
      <rtept lat="45.53844" lon="5.95135">
        <ele>347</ele>
      </rtept>
      <rtept lat="45.53765" lon="5.9503">
        <ele>349</ele>
      </rtept>
      <rtept lat="45.5381" lon="5.94993">
        <ele>352</ele>
      </rtept>
      <rtept lat="45.53781" lon="5.94901">
        <ele>358</ele>
      </rtept>
      <rtept lat="45.53711" lon="5.94845">
        <ele>365</ele>
      </rtept>
      <rtept lat="45.53702" lon="5.94764">
        <ele>369</ele>
      </rtept>
      <rtept lat="45.53817" lon="5.94807">
        <ele>376</ele>
      </rtept>
      <rtept lat="45.53865" lon="5.94633">
        <ele>389</ele>
      </rtept>
      <rtept lat="45.53778" lon="5.94491">
        <ele>408</ele>
      </rtept>
      <rtept lat="45.53757" lon="5.94371">
        <ele>425</ele>
      </rtept>
      <rtept lat="45.53775" lon="5.94279">
        <ele>434</ele>
      </rtept>
      <rtept lat="45.53726" lon="5.94227">
        <ele>442</ele>
      </rtept>
      <rtept lat="45.53572" lon="5.94146">
        <ele>468</ele>
      </rtept>
      <rtept lat="45.53664" lon="5.94039">
        <ele>483</ele>
      </rtept>
      <rtept lat="45.53532" lon="5.93983">
        <ele>505</ele>
      </rtept>
      <rtept lat="45.53416" lon="5.93985">
        <ele>516</ele>
      </rtept>
      <rtept lat="45.5355" lon="5.93869">
        <ele>532</ele>
      </rtept>
      <rtept lat="45.5359" lon="5.93845">
        <ele>537</ele>
      </rtept>
      <rtept lat="45.5355" lon="5.93802">
        <ele>544</ele>
      </rtept>
      <rtept lat="45.53724" lon="5.93554">
        <ele>587</ele>
      </rtept>
      <rtept lat="45.53691" lon="5.93339">
        <ele>592</ele>
      </rtept>
      <rtept lat="45.5376" lon="5.93178">
        <ele>575</ele>
      </rtept>
      <rtept lat="45.53843" lon="5.93069">
        <ele>555</ele>
      </rtept>
      <rtept lat="45.53939" lon="5.93157">
        <ele>541</ele>
      </rtept>
      <rtept lat="45.54068" lon="5.93234">
        <ele>522</ele>
      </rtept>
      <rtept lat="45.54219" lon="5.93247">
        <ele>514</ele>
      </rtept>
      <rtept lat="45.54355" lon="5.93232">
        <ele>512</ele>
      </rtept>
      <rtept lat="45.54489" lon="5.9326">
        <ele>508</ele>
      </rtept>
      <rtept lat="45.54636" lon="5.93249">
        <ele>510</ele>
      </rtept>
      <rtept lat="45.54758" lon="5.93249">
        <ele>510</ele>
      </rtept>
      <rtept lat="45.54818" lon="5.93298">
        <ele>507</ele>
      </rtept>
      <rtept lat="45.54796" lon="5.93418">
        <ele>496</ele>
      </rtept>
      <rtept lat="45.5491" lon="5.93433">
        <ele>483</ele>
      </rtept>
      <rtept lat="45.55126" lon="5.9341">
        <ele>463</ele>
      </rtept>
      <rtept lat="45.55256" lon="5.93453">
        <ele>444</ele>
      </rtept>
      <rtept lat="45.55329" lon="5.93558">
        <ele>430</ele>
      </rtept>
      <rtept lat="45.55222" lon="5.93642">
        <ele>415</ele>
      </rtept>
      <rtept lat="45.55195" lon="5.93811">
        <ele>375</ele>
      </rtept>
    </rte>
  <rte>
    <name><![CDATA[10 févr. 2019 à 15:15:48]]></name>
    <cmt><![CDATA[10 févr. 2019 à 15:15:48]]></cmt>
    <desc><![CDATA[{DC1}Heure de fin	: 00:09:21
Durée totale	: -17690439h44:12
Moyenne globale	: -
Pente moyenne	: nan %
Aire incluse	: 0.0000 ha
Détails par segments
distance  | durée    | vit.moy. | vit.max. | déniv. + | déniv -
   km     | hh:mn:ss |   km/h   |   km/h   |    m     |    m
     0.00 | 00:00:00 |      0.0 |      0.0 |        0 |        0{DC2}]]></desc>
      <rtept lat="45.5175" lon="5.93483">
        <ele>732.3</ele>
      </rtept>
    </rte>
  <rte>
    <name><![CDATA[10 févr. 2019 à 15:06:08]]></name>
    <cmt><![CDATA[10 févr. 2019 à 15:06:08]]></cmt>
    <desc><![CDATA[{DC1}Heure de fin	: 
Durée totale	: 0h00:00
Moyenne globale	: -
Pente moyenne	: 8.03 %
Aire incluse	: 204.0794 ha
Détails par segments
distance  | durée    | vit.moy. | vit.max. | déniv. + | déniv -
   km     | hh:mn:ss |   km/h   |   km/h   |    m     |    m
    12.88 | 00:00:00 |      0.0 |      0.0 |        0 |        0{DC2}]]></desc>
      <rtept lat="45.5509" lon="5.9394">
        <ele>368</ele>
      </rtept>
      <rtept lat="45.55217" lon="5.93791">
        <ele>377</ele>
      </rtept>
    </rte>
  <rte>
    <name><![CDATA[10 févr. 2019 à 14:22:06]]></name>
    <cmt><![CDATA[10 févr. 2019 à 14:22:06]]></cmt>
    <desc><![CDATA[{DC1}Heure de fin	: 00:09:21
Durée totale	: -17690438h37:54
Moyenne globale	: -
Pente moyenne	: 5.62 %
Aire incluse	: 5.7967 ha
Détails par segments
distance  | durée    | vit.moy. | vit.max. | déniv. + | déniv -
   km     | hh:mn:ss |   km/h   |   km/h   |    m     |    m
     3.30 | 00:00:00 |      0.0 |      0.0 |        0 |        0{DC2}]]></desc>
      <rtept lat="45.55169" lon="5.93089">
        <ele>415</ele>
      </rtept>
      <rtept lat="45.5518" lon="5.93905">
        <ele>366</ele>
      </rtept>
    </rte>
  <rte>
    <name><![CDATA[10 févr. 2019 à 09:50:45]]></name>
    <cmt><![CDATA[10 févr. 2019 à 09:50:45]]></cmt>
    <desc><![CDATA[{DC1}Heure de fin	: 00:09:21
Durée totale	: -17690433h09:14
Moyenne globale	: -
Pente moyenne	: 0.00 %
Aire incluse	: 50.7119 ha
Détails par segments
distance  | durée    | vit.moy. | vit.max. | déniv. + | déniv -
   km     | hh:mn:ss |   km/h   |   km/h   |    m     |    m
     4.33 | 00:00:00 |      0.0 |      0.0 |        0 |        0{DC2}]]></desc>
      <rtept lat="45.5503" lon="5.93918">
        <ele>373.6</ele>
      </rtept>
      <rtept lat="45.55191" lon="5.93893">
        <ele>366.7</ele>
      </rtept>
    </rte>
  <rte>
    <name><![CDATA[10 févr. 2019 à 09:07:08]]></name>
    <cmt><![CDATA[10 févr. 2019 à 09:07:08]]></cmt>
    <desc><![CDATA[{DC1}Heure de fin	: 00:09:21
Durée totale	: -17690433h52:52
Moyenne globale	: -
Pente moyenne	: nan %
Aire incluse	: 0.0000 ha
Détails par segments
distance  | durée    | vit.moy. | vit.max. | déniv. + | déniv -
   km     | hh:mn:ss |   km/h   |   km/h   |    m     |    m
     0.00 | 00:00:00 |      0.0 |      0.0 |        0 |        0{DC2}]]></desc>
      <rtept lat="45.55102" lon="5.93919">
        <ele>370.1</ele>
      </rtept>
    </rte>
  <rte>
    <name><![CDATA[10 févr. 2019 à 09:02:25]]></name>
    <cmt><![CDATA[10 févr. 2019 à 09:02:25]]></cmt>
    <desc><![CDATA[{DC1}Heure de fin	: 00:09:21
Durée totale	: -17690433h57:35
Moyenne globale	: -
Pente moyenne	: nan %
Aire incluse	: 0.0000 ha
Détails par segments
distance  | durée    | vit.moy. | vit.max. | déniv. + | déniv -
   km     | hh:mn:ss |   km/h   |   km/h   |    m     |    m
     0.00 | 00:00:00 |      0.0 |      0.0 |        0 |        0{DC2}]]></desc>
      <rtept lat="45.55207" lon="5.93813">
        <ele>375.2</ele>
      </rtept>
    </rte>
  <rte>
    <name><![CDATA[10 févr. 2019 à 09:00:27]]></name>
    <cmt><![CDATA[10 févr. 2019 à 09:00:27]]></cmt>
    <desc><![CDATA[{DC1}Heure de fin	: 00:09:21
Durée totale	: -17690433h59:32
Moyenne globale	: -
Pente moyenne	: nan %
Aire incluse	: 0.0000 ha
Détails par segments
distance  | durée    | vit.moy. | vit.max. | déniv. + | déniv -
   km     | hh:mn:ss |   km/h   |   km/h   |    m     |    m
     0.00 | 00:00:00 |      0.0 |      0.0 |        0 |        0{DC2}]]></desc>
      <rtept lat="45.55244" lon="5.93858">
        <ele>366.6</ele>
      </rtept>
    </rte>
</gpx>